Provisional Data: Susquehanna River near Rockville, PA


Please select a monitoring station.
Please select start date.
Please select start date.

Toggle Unit: C/F Toggle Unit: C/F
Sample Time Temperature (C) Temperature (F) Specific Conductivity (mS/cm) pH   Turbidity (NTU+) DO (mg/L)
4/13/2022 12:00:00 AM 12.61 54.698 7.25 67.63 -5
4/13/2022 12:15:00 AM 12.61 54.698 7.25 63.68 -5
4/13/2022 12:30:00 AM 12.73 54.914 7.25 62.76 -5
4/13/2022 12:45:00 AM 12.61 54.698 7.25 65.04 -5
4/13/2022 1:00:00 AM 12.73 54.914 7.25 65.75 -5
4/13/2022 1:15:00 AM 12.73 54.914 7.25 65.27 -5
4/13/2022 1:30:00 AM 12.49 54.482 7.25 67.31 -5
4/13/2022 1:45:00 AM 12.49 54.482 7.25 65.26 -5
4/13/2022 2:00:00 AM 12.49 54.482 7.26 65.57 -5
4/13/2022 2:15:00 AM 12.49 54.482 7.26 65.6 -5
4/13/2022 2:30:00 AM 12.49 54.482 7.26 64.57 -5
4/13/2022 2:45:00 AM 12.36 54.248 7.26 65.5 -5
4/13/2022 3:00:00 AM 12.36 54.248 7.26 64.52 -5
4/13/2022 3:15:00 AM 12.36 54.248 7.25 64.58 -5
4/13/2022 3:30:00 AM 12.36 54.248 7.26 67.22 -5
4/13/2022 3:45:00 AM 12.36 54.248 7.26 67.2 -5
4/13/2022 4:00:00 AM 12.37 54.266 7.24 63.13 -5
4/13/2022 4:15:00 AM 12.36 54.248 7.25 65.44 -5
4/13/2022 4:30:00 AM 12.36 54.248 7.25 65.96 -5
4/13/2022 4:45:00 AM 12.36 54.248 7.25 65.33 -5
4/13/2022 5:00:00 AM 12.23 54.014 7.25 57.83 -5
4/13/2022 5:15:00 AM 12.23 54.014 7.26 60.38 -5
4/13/2022 5:30:00 AM 12.23 54.014 7.26 62.7 -5
4/13/2022 5:45:00 AM 12.23 54.014 7.26 64.95 -5
4/13/2022 6:00:00 AM 12.23 54.014 7.25 60.81 -5
4/13/2022 6:15:00 AM 12.23 54.014 7.25 58.21 -5
4/13/2022 6:30:00 AM 12.23 54.014 7.25 63.2 -5
4/13/2022 6:45:00 AM 12.23 54.014 7.26 63.93 -5
4/13/2022 7:00:00 AM 12.23 54.014 7.25 60.31 -5
4/13/2022 7:15:00 AM 11.85 53.33 7.25 53.69 -5
4/13/2022 7:30:00 AM 11.85 53.33 7.28 60.31 -5
4/13/2022 7:45:00 AM 11.85 53.33 7.26 53.16 -5
4/13/2022 8:00:00 AM 11.85 53.33 7.26 53.65 -5
4/13/2022 8:15:00 AM 11.85 53.33 7.26 57.5 -5
4/13/2022 8:30:00 AM 11.85 53.33 7.26 61.77 -5
4/13/2022 8:45:00 AM 11.85 53.33 7.26 60.87 -5
4/13/2022 9:00:00 AM 11.85 53.33 7.27 61.92 -5
4/13/2022 9:15:00 AM 11.85 53.33 7.26 60.3 -5
4/13/2022 9:30:00 AM 11.85 53.33 7.28 64.17 -5
4/13/2022 9:45:00 AM 11.85 53.33 7.28 65.84 -5
4/13/2022 10:00:00 AM 11.97 53.546 7.27 66.75 -5
4/13/2022 10:15:00 AM 11.98 53.564 7.28 65.87 -5
4/13/2022 10:30:00 AM 11.98 53.564 7.27 64.28 -5
4/13/2022 10:45:00 AM 11.98 53.564 7.26 57.04 -5
4/13/2022 11:00:00 AM 11.98 53.564 7.27 59.03 -5
4/13/2022 11:15:00 AM 11.98 53.564 7.26 55.26 -5
4/13/2022 11:30:00 AM 11.98 53.564 7.28 55.72 -5
4/13/2022 11:45:00 AM 12.12 53.816 7.27 53.94 -5
4/13/2022 12:00:00 PM 12.11 53.798 7.28 55.15 -5
4/13/2022 12:15:00 PM 12.23 54.014 7.29 59.05 -5
4/13/2022 12:30:00 PM 12.35 54.23 7.28 63.02 -5
4/13/2022 12:45:00 PM 12.36 54.248 7.28 60.17 -5
4/13/2022 1:00:00 PM 12.36 54.248 7.26 55.79 -5
4/13/2022 1:15:00 PM 12.49 54.482 7.29 59.98 -5
4/13/2022 1:30:00 PM 12.49 54.482 7.26 54.06 -5
4/13/2022 1:45:00 PM 12.49 54.482 7.28 57.25 -5
4/13/2022 2:00:00 PM 12.61 54.698 7.29 55.57 -5
4/13/2022 2:15:00 PM 12.61 54.698 7.28 54.68 -5
4/13/2022 2:30:00 PM 12.61 54.698 7.28 54.95 -5
4/13/2022 2:45:00 PM 12.61 54.698 7.27 54.15 -5
4/13/2022 3:00:00 PM 12.61 54.698 7.29 55.33 -5
4/13/2022 3:15:00 PM 12.73 54.914 7.28 54.3 -5
4/13/2022 3:30:00 PM 12.73 54.914 7.28 56.1 -5
4/13/2022 3:45:00 PM 12.73 54.914 7.27 51.78 -5
4/13/2022 4:00:00 PM 12.73 54.914 7.28 53.1 -5
4/13/2022 4:15:00 PM 12.73 54.914 7.28 52.41 -5
4/13/2022 4:30:00 PM 12.86 55.148 7.28 55.55 -5
4/13/2022 4:45:00 PM 12.99 55.382 7.29 58.76 -5
4/13/2022 5:00:00 PM 12.99 55.382 7.28 56.69 -5
4/13/2022 5:15:00 PM 12.99 55.382 7.27 51.51 -5
4/13/2022 5:30:00 PM 12.99 55.382 7.3 58.08 -5
4/13/2022 5:45:00 PM 12.99 55.382 7.28 51.64 -5
4/13/2022 6:00:00 PM 12.99 55.382 7.27 53.44 -5
4/13/2022 6:15:00 PM 13.11 55.598 7.29 54.98 -5
4/13/2022 6:30:00 PM 12.99 55.382 7.27 49.12 -5
4/13/2022 6:45:00 PM 13.1 55.58 7.28 52.16 -5
4/13/2022 7:00:00 PM 13.23 55.814 7.29 54.04 -5
4/13/2022 7:15:00 PM 13.24 55.832 7.29 54.94 -5
4/13/2022 7:30:00 PM 13.1 55.58 7.28 50.87 -5
4/13/2022 7:45:00 PM 13.25 55.85 7.29 50.88 -5
4/13/2022 8:00:00 PM 13.25 55.85 7.28 52.48 -5
4/13/2022 8:15:00 PM 13.25 55.85 7.29 52.87 -5
4/13/2022 8:30:00 PM 13.25 55.85 7.28 49.09 -5
4/13/2022 8:45:00 PM 13.36 56.048 7.3 53.36 -5
4/13/2022 9:00:00 PM 13.36 56.048 7.29 52.84 -5
4/13/2022 9:15:00 PM 13.36 56.048 7.29 52.05 -5
4/13/2022 9:30:00 PM 13.36 56.048 7.3 51.22 -5
4/13/2022 9:45:00 PM 13.36 56.048 7.29 51.57 -5
4/13/2022 10:00:00 PM 13.36 56.048 7.3 50.71 -5
4/13/2022 10:15:00 PM 13.36 56.048 7.29 50.48 -5
4/13/2022 10:30:00 PM 13.36 56.048 7.3 50.69 -5
4/13/2022 10:45:00 PM 13.36 56.048 7.29 49.34 -5
4/13/2022 11:00:00 PM 13.36 56.048 7.3 47.08 -5
4/13/2022 11:15:00 PM 13.36 56.048 7.29 47.61 -5
4/13/2022 11:30:00 PM 13.37 56.066 7.29 48.8 -5
4/13/2022 11:45:00 PM 13.36 56.048 7.29 50.59 -5
4/14/2022 12:00:00 AM 13.37 56.066 7.3 50.63 -5
4/14/2022 12:15:00 AM 13.36 56.048 7.3 49.72 -5
4/14/2022 12:30:00 AM 13.48 56.264 7.29 53.19 -5
4/14/2022 12:45:00 AM 13.48 56.264 7.3 51.63 -5
4/14/2022 1:00:00 AM 13.48 56.264 7.29 49.75 -5
4/14/2022 1:15:00 AM 13.48 56.264 7.3 51.58 -5
4/14/2022 1:30:00 AM 13.48 56.264 7.3 51.02 -5
4/14/2022 1:45:00 AM 13.48 56.264 7.31 48.43 -5
4/14/2022 2:00:00 AM 13.36 56.048 7.3 45.52 -5
4/14/2022 2:15:00 AM 13.36 56.048 7.3 45.88 -5
4/14/2022 2:30:00 AM 13.48 56.264 7.29 51.62 -5
4/14/2022 2:45:00 AM 13.48 56.264 7.3 48.68 -5
4/14/2022 3:00:00 AM 13.48 56.264 7.3 48.88 -5
4/14/2022 3:15:00 AM 13.37 56.066 7.29 46.08 -5
4/14/2022 3:30:00 AM 13.37 56.066 7.29 46.13 -5
4/14/2022 3:45:00 AM 13.37 56.066 7.29 44.83 -5
4/14/2022 4:00:00 AM 13.36 56.048 7.29 47.1 -5
4/14/2022 4:15:00 AM 13.63 56.534 7.29 50.22 -5
4/14/2022 4:30:00 AM 13.63 56.534 7.29 50.56 -5
4/14/2022 4:45:00 AM 13.63 56.534 7.29 49.5 -5
4/14/2022 5:00:00 AM 13.63 56.534 7.28 47.62 -5
4/14/2022 5:15:00 AM 13.63 56.534 7.29 49.34 -5
4/14/2022 5:30:00 AM 13.63 56.534 7.28 47.55 -5
4/14/2022 5:45:00 AM 13.63 56.534 7.28 48.15 -5
4/14/2022 6:00:00 AM 13.63 56.534 7.29 48.78 -5
4/14/2022 6:15:00 AM 13.63 56.534 7.29 50.44 -5
4/14/2022 6:30:00 AM 13.63 56.534 7.29 49.81 -5
4/14/2022 6:45:00 AM 13.63 56.534 7.29 48.15 -5
4/14/2022 7:00:00 AM 13.72 56.696 7.29 49.9 -5
4/14/2022 7:15:00 AM 13.84 56.912 7.29 48.69 -5
4/14/2022 7:30:00 AM 14.22 57.596 7.29 48.23 -5
4/14/2022 7:45:00 AM 14.6 58.28 7.29 47.64 -5
4/14/2022 8:00:00 AM 15.1 59.18 7.29 47.64 -5
4/14/2022 8:15:00 AM 15.64 60.152 7.3 46.49 -5
4/14/2022 8:30:00 AM 16.24 61.232 7.29 46.71 -5
4/14/2022 8:45:00 AM 16.35 61.43 7.29 45.07 -5
4/14/2022 9:00:00 AM 18.86 65.948 7.29 31.1 -5
4/14/2022 9:15:00 AM 12.36 54.248 7.3 37.87 -5
4/14/2022 9:30:00 AM 12.36 54.248 7.28 38.27 -5
4/14/2022 9:45:00 AM 12.36 54.248 7.27 38.79 -5
4/14/2022 10:00:00 AM 12.22 53.996 7.27 39.25 -5
4/14/2022 10:15:00 AM 12.36 54.248 7.27 40.83 -5
4/14/2022 10:30:00 AM 12.22 53.996 7.25 38.8 -5
4/14/2022 10:45:00 AM 12.36 54.248 7.27 40.06 -5
4/14/2022 11:00:00 AM 12.35 54.23 7.25 37.9 -5
4/14/2022 11:15:00 AM 12.35 54.23 7.27 41.14 -5
4/14/2022 11:30:00 AM 12.37 54.266 7.27 40.28 -5
4/14/2022 11:45:00 AM 12.49 54.482 7.27 39.9 -5
4/14/2022 12:00:00 PM 12.49 54.482 7.27 38.53 -5
4/14/2022 12:15:00 PM 12.49 54.482 7.27 39.04 -5
4/14/2022 12:30:00 PM 12.49 54.482 7.27 38.09 -5
4/14/2022 12:45:00 PM 12.49 54.482 7.27 38.17 -5
4/14/2022 1:00:00 PM 12.61 54.698 7.27 36.58 -5
4/14/2022 1:15:00 PM 12.61 54.698 7.28 37.82 -5
4/14/2022 1:30:00 PM 12.61 54.698 7.27 37.05 -5
4/14/2022 1:45:00 PM 12.61 54.698 7.28 38.92 -5
4/14/2022 2:00:00 PM 12.73 54.914 7.28 39.86 -5
4/14/2022 2:15:00 PM 12.73 54.914 7.28 38.14 -5
4/14/2022 2:30:00 PM 12.73 54.914 7.28 38.06 -5
4/14/2022 2:45:00 PM 12.73 54.914 7.29 39.27 -5
4/14/2022 3:00:00 PM 12.73 54.914 7.3 37.51 -5
4/14/2022 3:15:00 PM 12.86 55.148 7.29 38.73 -5
4/14/2022 3:30:00 PM 12.73 54.914 7.3 38.13 -5
4/14/2022 3:45:00 PM 12.73 54.914 7.3 38.81 -5
4/14/2022 4:00:00 PM 12.86 55.148 7.31 37.2 -5
4/14/2022 4:15:00 PM 12.86 55.148 7.31 37.19 -5
4/14/2022 4:30:00 PM 12.73 54.914 7.3 35.92 -5
4/14/2022 4:45:00 PM 12.86 55.148 7.31 35.93 -5
4/14/2022 5:00:00 PM 12.86 55.148 7.31 35.52 -5
4/14/2022 5:15:00 PM 12.86 55.148 7.3 36.63 -5
4/14/2022 5:30:00 PM 12.73 54.914 7.32 37.91 -5
4/14/2022 5:45:00 PM 12.86 55.148 7.31 36.8 -5
4/14/2022 6:00:00 PM 12.73 54.914 7.31 36.62 -5
4/14/2022 6:15:00 PM 12.86 55.148 7.31 36 -5
4/14/2022 6:30:00 PM 12.99 55.382 7.32 38.24 -5
4/14/2022 6:45:00 PM 12.86 55.148 7.32 37.43 -5
4/14/2022 7:00:00 PM 12.86 55.148 7.31 38.61 -5
4/14/2022 7:15:00 PM 13.1 55.58 7.32 38.05 -5
4/14/2022 7:30:00 PM 12.86 55.148 7.31 38.05 -5
4/14/2022 7:45:00 PM 12.99 55.382 7.32 37.57 -5
4/14/2022 8:00:00 PM 12.87 55.166 7.32 37.07 -5
4/14/2022 8:15:00 PM 12.86 55.148 7.32 37.36 -5
4/14/2022 8:30:00 PM 12.99 55.382 7.32 34.91 -5
4/14/2022 8:45:00 PM 12.72 54.896 7.32 35.87 -5
4/14/2022 9:00:00 PM 12.73 54.914 7.32 36.51 -5
4/14/2022 9:15:00 PM 12.99 55.382 7.32 35.89 -5
4/14/2022 9:30:00 PM 12.61 54.698 7.32 38.48 -5
4/14/2022 9:45:00 PM 12.86 55.148 7.32 37.11 -5
4/14/2022 10:00:00 PM 12.61 54.698 7.32 35.93 -5
4/14/2022 10:15:00 PM 12.73 54.914 7.32 35.92 -5
4/14/2022 10:30:00 PM 12.72 54.896 7.32 37.39 -5
4/14/2022 10:45:00 PM 12.61 54.698 7.32 37.06 -5
4/14/2022 11:00:00 PM 12.73 54.914 7.33 38.52 -5
4/14/2022 11:15:00 PM 12.61 54.698 7.32 36.48 -5
4/14/2022 11:30:00 PM 12.73 54.914 7.33 37.78 -5
4/14/2022 11:45:00 PM 12.49 54.482 7.33 37.94 -5
4/15/2022 12:00:00 AM 12.73 54.914 7.33 37.83 -5
4/15/2022 12:15:00 AM 12.61 54.698 7.33 39.18 -5
4/15/2022 12:30:00 AM 12.61 54.698 7.33 41.07 -5
4/15/2022 12:45:00 AM 12.73 54.914 7.33 41.83 -5
4/15/2022 1:00:00 AM 12.49 54.482 7.33 41.44 -5
4/15/2022 1:15:00 AM 12.61 54.698 7.33 41.62 -5
4/15/2022 1:30:00 AM 12.49 54.482 7.33 41.42 -5
4/15/2022 1:45:00 AM 12.49 54.482 7.33 40.13 -5
4/15/2022 2:00:00 AM 12.48 54.464 7.33 39.85 -5
4/15/2022 2:15:00 AM 12.22 53.996 7.33 38.4 -5
4/15/2022 2:30:00 AM 12.48 54.464 7.33 36.98 -5
4/15/2022 2:45:00 AM 12.22 53.996 7.33 35.86 -5
4/15/2022 3:00:00 AM 12.35 54.23 7.32 35.64 -5
4/15/2022 3:15:00 AM 12.35 54.23 7.32 34.39 -5
4/15/2022 3:30:00 AM 12.11 53.798 7.33 34.48 -5
4/15/2022 3:45:00 AM 12.35 54.23 7.32 33.46 -5
4/15/2022 4:00:00 AM 12.11 53.798 7.32 34.11 -5
4/15/2022 4:15:00 AM 12.22 53.996 7.32 33.02 -5
4/15/2022 4:30:00 AM 12.11 53.798 7.33 34.34 -5
4/15/2022 4:45:00 AM 12.11 53.798 7.32 33.16 -5
4/15/2022 5:00:00 AM 12.11 53.798 7.31 33.71 -5
4/15/2022 5:15:00 AM 11.97 53.546 7.32 33.77 -5
4/15/2022 5:30:00 AM 11.97 53.546 7.32 32.67 -5
4/15/2022 5:45:00 AM 12.11 53.798 7.32 32.84 -5
4/15/2022 6:00:00 AM 11.85 53.33 7.32 33.95 -5
4/15/2022 6:15:00 AM 11.97 53.546 7.32 33.52 -5
4/15/2022 6:30:00 AM 11.73 53.114 7.32 33.42 -5
4/15/2022 6:45:00 AM 11.73 53.114 7.32 33.9 -5
4/15/2022 7:00:00 AM 11.85 53.33 7.32 33.15 -5
4/15/2022 7:15:00 AM 11.59 52.862 7.32 33.38 -5
4/15/2022 7:30:00 AM 11.73 53.114 7.32 33.76 -5
4/15/2022 7:45:00 AM 11.73 53.114 7.32 32.89 -5
4/15/2022 8:00:00 AM 11.47 52.646 7.32 33.14 -5
4/15/2022 8:15:00 AM 11.73 53.114 7.32 30.98 -5
4/15/2022 8:30:00 AM 11.59 52.862 7.32 31.98 -5
4/15/2022 8:45:00 AM 11.59 52.862 7.32 32.49 -5
4/15/2022 9:00:00 AM 11.73 53.114 7.32 32.03 -5
4/15/2022 9:15:00 AM 11.48 52.664 7.33 32.41 -5
4/15/2022 9:30:00 AM 11.73 53.114 7.33 31.04 -5
4/15/2022 9:45:00 AM 11.73 53.114 7.33 31.6 -5
4/15/2022 10:00:00 AM 11.74 53.132 7.33 31.91 -5
4/15/2022 10:15:00 AM 11.85 53.33 7.32 30.28 -5
4/15/2022 10:30:00 AM 11.59 52.862 7.32 32.31 -5
4/15/2022 10:45:00 AM 11.85 53.33 7.32 32.61 -5
4/15/2022 11:00:00 AM 11.74 53.132 7.33 29.57 -5
4/15/2022 11:15:00 AM 11.85 53.33 7.32 29.9 -5
4/15/2022 11:30:00 AM 11.97 53.546 7.32 30.64 -5
4/15/2022 11:45:00 AM 11.84 53.312 7.33 29.07 -5
4/15/2022 12:00:00 PM 12.11 53.798 7.33 28.83 -5
4/15/2022 12:15:00 PM 11.84 53.312 7.33 30.36 -5
4/15/2022 12:30:00 PM 12.11 53.798 7.33 29.41 -5
4/15/2022 12:45:00 PM 12.11 53.798 7.33 29.66 -5
4/15/2022 1:00:00 PM 12.22 53.996 7.33 31.38 -5
4/15/2022 1:15:00 PM 12.22 53.996 7.33 29.74 -5
4/15/2022 1:30:00 PM 12.22 53.996 7.34 29.69 -5
4/15/2022 1:45:00 PM 12.35 54.23 7.35 32.06 -5
4/15/2022 2:00:00 PM 12.35 54.23 7.35 31.4 -5
4/15/2022 2:15:00 PM 12.48 54.464 7.34 27.88 -5
4/15/2022 2:30:00 PM 12.35 54.23 7.34 28.43 -5
4/15/2022 2:45:00 PM 12.61 54.698 7.34 28.21 -5
4/15/2022 3:00:00 PM 12.49 54.482 7.34 28.62 -5
4/15/2022 3:15:00 PM 12.73 54.914 7.35 27.98 -5
4/15/2022 3:30:00 PM 12.61 54.698 7.35 27.9 -5
4/15/2022 3:45:00 PM 12.86 55.148 7.35 26.9 -5
4/15/2022 4:00:00 PM 12.72 54.896 7.36 28.44 -5
4/15/2022 4:15:00 PM 12.98 55.364 7.35 28.33 -5
4/15/2022 4:30:00 PM 12.86 55.148 7.36 33.88 -5
4/15/2022 4:45:00 PM 13.1 55.58 7.36 30.74 -5
4/15/2022 5:00:00 PM 12.98 55.364 7.37 30.06 -5
4/15/2022 5:15:00 PM 12.86 55.148 7.37 27.87 -5
4/15/2022 5:30:00 PM 13.1 55.58 7.38 30.31 -5
4/15/2022 5:45:00 PM 12.99 55.382 7.37 29.38 -5
4/15/2022 6:00:00 PM 13.24 55.832 7.38 30.59 -5
4/15/2022 6:15:00 PM 12.99 55.382 7.38 30.77 -5
4/15/2022 6:30:00 PM 13.36 56.048 7.38 30.9 -5
4/15/2022 6:45:00 PM 12.98 55.364 7.37 30.49 -5
4/15/2022 7:00:00 PM 13.36 56.048 7.38 31.52 -5
4/15/2022 7:15:00 PM 13.1 55.58 7.38 31.77 -5
4/15/2022 7:30:00 PM 13.36 56.048 7.38 32.76 -5
4/15/2022 7:45:00 PM 13.1 55.58 7.38 32.88 -5
4/15/2022 8:00:00 PM 13.24 55.832 7.38 35.77 -5
4/15/2022 8:15:00 PM 13.1 55.58 7.39 34.66 -5
4/15/2022 8:30:00 PM 13.24 55.832 7.39 35.88 -5
4/15/2022 8:45:00 PM 13.1 55.58 7.39 36.15 -5
4/15/2022 9:00:00 PM 13.24 55.832 7.4 36.15 -5
4/15/2022 9:15:00 PM 13.24 55.832 7.4 35.5 -5
4/15/2022 9:30:00 PM 13.24 55.832 7.4 34.88 -5
4/15/2022 9:45:00 PM 13.24 55.832 7.4 34.81 -5
4/15/2022 10:00:00 PM 13.1 55.58 7.4 35.18 -5
4/15/2022 10:15:00 PM 13.36 56.048 7.4 34.92 -5
4/15/2022 10:30:00 PM 13.1 55.58 7.4 35 -5
4/15/2022 10:45:00 PM 13.24 55.832 7.4 33.33 -5
4/15/2022 11:00:00 PM 13.1 55.58 7.4 33.61 -5
4/15/2022 11:15:00 PM 13.24 55.832 7.4 33.47 -5
4/15/2022 11:30:00 PM 12.99 55.382 7.41 35.7 -5
4/15/2022 11:45:00 PM 13.24 55.832 7.41 35.4 -5
4/16/2022 12:00:00 AM 12.99 55.382 7.42 34.5 -5
4/16/2022 12:15:00 AM 13.1 55.58 7.42 33.88 -5
4/16/2022 12:30:00 AM 12.98 55.364 7.41 33.08 -5
4/16/2022 12:45:00 AM 12.98 55.364 7.42 33.07 -5
4/16/2022 1:00:00 AM 13.1 55.58 7.42 33.22 -5
4/16/2022 1:15:00 AM 12.86 55.148 7.42 33.08 -5
4/16/2022 1:30:00 AM 13.1 55.58 7.43 33.52 -5
4/16/2022 1:45:00 AM 12.86 55.148 7.43 33.56 -5
4/16/2022 2:00:00 AM 12.98 55.364 7.43 33.03 -5
4/16/2022 2:15:00 AM 12.73 54.914 7.43 33.5 -5
4/16/2022 2:30:00 AM 12.98 55.364 7.43 32.56 -5
4/16/2022 2:45:00 AM 12.73 54.914 7.42 32.22 -5
4/16/2022 3:00:00 AM 12.73 54.914 7.42 32.16 -5
4/16/2022 3:15:00 AM 12.86 55.148 7.42 33.11 -5
4/16/2022 3:30:00 AM 12.61 54.698 7.42 33.01 -5
4/16/2022 3:45:00 AM 12.86 55.148 7.42 33.17 -5
4/16/2022 4:00:00 AM 12.61 54.698 7.41 32.71 -5
4/16/2022 4:15:00 AM 12.73 54.914 7.42 34.01 -5
4/16/2022 4:30:00 AM 12.48 54.464 7.42 33.39 -5
4/16/2022 4:45:00 AM 12.61 54.698 7.41 32.54 -5
4/16/2022 5:00:00 AM 12.61 54.698 7.42 32.8 -5
4/16/2022 5:15:00 AM 12.48 54.464 7.41 30.81 -5
4/16/2022 5:30:00 AM 12.61 54.698 7.41 30.77 -5
4/16/2022 5:45:00 AM 12.35 54.23 7.4 30.71 -5
4/16/2022 6:00:00 AM 12.61 54.698 7.4 29.51 -5
4/16/2022 6:15:00 AM 12.35 54.23 7.39 29.86 -5
4/16/2022 6:30:00 AM 12.61 54.698 7.38 30.32 -5
4/16/2022 6:45:00 AM 12.35 54.23 7.39 30.45 -5
4/16/2022 7:00:00 AM 12.49 54.482 7.37 29.29 -5
4/16/2022 7:15:00 AM 12.35 54.23 7.38 29.37 -5
4/16/2022 7:30:00 AM 12.48 54.464 7.38 30.52 -5
4/16/2022 7:45:00 AM 12.49 54.482 7.38 35.15 -5
4/16/2022 8:00:00 AM 12.35 54.23 7.4 33.59 -5
4/16/2022 8:15:00 AM 12.61 54.698 7.39 32.91 -5
4/16/2022 8:30:00 AM 12.22 53.996 7.4 32.64 -5
4/16/2022 8:45:00 AM 12.48 54.464 7.39 32.08 -5
4/16/2022 9:00:00 AM 12.22 53.996 7.39 31.5 -5
4/16/2022 9:15:00 AM 12.48 54.464 7.39 31.91 -5
4/16/2022 9:30:00 AM 12.35 54.23 7.39 31.8 -5
4/16/2022 9:45:00 AM 12.49 54.482 7.38 32.16 -5
4/16/2022 10:00:00 AM 12.35 54.23 7.39 30.32 -5
4/16/2022 10:15:00 AM 12.48 54.464 7.39 31.52 -5
4/16/2022 10:30:00 AM 12.49 54.482 7.39 31.88 -5
4/16/2022 10:45:00 AM 12.49 54.482 7.39 31.85 -5
4/16/2022 11:00:00 AM 12.61 54.698 7.38 32.91 -5
4/16/2022 11:15:00 AM 12.35 54.23 7.39 32.15 -5
4/16/2022 11:30:00 AM 12.73 54.914 7.4 32.61 -5
4/16/2022 11:45:00 AM 12.48 54.464 7.39 32.26 -5
4/16/2022 12:00:00 PM 12.73 54.914 7.4 31.83 -5
4/16/2022 12:15:00 PM 12.61 54.698 7.4 33.92 -5
4/16/2022 12:30:00 PM 12.98 55.364 7.41 32.95 -5
4/16/2022 12:45:00 PM 12.72 54.896 7.41 34.82 -5
4/16/2022 1:00:00 PM 12.98 55.364 7.4 34.59 -5
4/16/2022 1:15:00 PM 12.72 54.896 7.4 34.03 -5
4/16/2022 1:30:00 PM 12.86 55.148 7.4 32.57 -5
4/16/2022 1:45:00 PM 12.73 54.914 7.39 31.36 -5
4/16/2022 2:00:00 PM 12.86 55.148 7.4 32.47 -5
4/16/2022 2:15:00 PM 12.86 55.148 7.4 31.92 -5
4/16/2022 2:30:00 PM 12.86 55.148 7.39 32.38 -5
4/16/2022 2:45:00 PM 12.99 55.382 7.4 31.09 -5
4/16/2022 3:00:00 PM 12.86 55.148 7.4 34.77 -5
4/16/2022 3:15:00 PM 12.99 55.382 7.4 33.86 -5
4/16/2022 3:30:00 PM 12.73 54.914 7.41 33.88 -5
4/16/2022 3:45:00 PM 12.99 55.382 7.41 33.3 -5
4/16/2022 4:00:00 PM 12.73 54.914 7.41 32.74 -5
4/16/2022 4:15:00 PM 12.98 55.364 7.41 32.96 -5
4/16/2022 4:30:00 PM 12.99 55.382 7.42 32.51 -5
4/16/2022 4:45:00 PM 12.99 55.382 7.42 32.76 -5
4/16/2022 5:00:00 PM 13.1 55.58 7.42 33.06 -5
4/16/2022 5:15:00 PM 12.86 55.148 7.41 32.03 -5
4/16/2022 5:30:00 PM 13.24 55.832 7.43 31.73 -5
4/16/2022 5:45:00 PM 12.98 55.364 7.42 32.57 -5
4/16/2022 6:00:00 PM 13.1 55.58 7.42 32.51 -5
4/16/2022 6:15:00 PM 12.98 55.364 7.43 31.54 -5
4/16/2022 6:30:00 PM 13.1 55.58 7.42 31.3 -5
4/16/2022 6:45:00 PM 13.1 55.58 7.43 31.55 -5
4/16/2022 7:00:00 PM 12.98 55.364 7.43 32.29 -5
4/16/2022 7:15:00 PM 13.24 55.832 7.43 32.53 -5
4/16/2022 7:30:00 PM 13.1 55.58 7.43 32.53 -5
4/16/2022 7:45:00 PM 13.24 55.832 7.44 31.53 -5
4/16/2022 8:00:00 PM 13.1 55.58 7.44 32.4 -5
4/16/2022 8:15:00 PM 13.1 55.58 7.44 31.84 -5
4/16/2022 8:30:00 PM 13.24 55.832 7.45 31.38 -5
4/16/2022 8:45:00 PM 12.98 55.364 7.44 30.91 -5
4/16/2022 9:00:00 PM 13.24 55.832 7.45 30.67 -5
4/16/2022 9:15:00 PM 13.1 55.58 7.45 30.09 -5
4/16/2022 9:30:00 PM 12.98 55.364 7.45 30.56 -5
4/16/2022 9:45:00 PM 13.24 55.832 7.45 29.83 -5
4/16/2022 10:00:00 PM 12.98 55.364 7.45 29.68 -5
4/16/2022 10:15:00 PM 13.1 55.58 7.44 29.51 -5
4/16/2022 10:30:00 PM 12.98 55.364 7.45 29.5 -5
4/16/2022 10:45:00 PM 12.86 55.148 7.44 29.32 -5
4/16/2022 11:00:00 PM 12.98 55.364 7.44 29.46 -5
4/16/2022 11:15:00 PM 12.73 54.914 7.45 29.79 -5
4/16/2022 11:30:00 PM 12.98 55.364 7.45 29.59 -5
4/16/2022 11:45:00 PM 12.72 54.896 7.45 29.69 -5
4/17/2022 12:00:00 AM 12.86 55.148 7.44 30.11 -5
4/17/2022 12:15:00 AM 12.86 55.148 7.44 29.1 -5
4/17/2022 12:30:00 AM 12.61 54.698 7.44 28.95 -5
4/17/2022 12:45:00 AM 12.73 54.914 7.44 28.56 -5
4/17/2022 1:00:00 AM 12.61 54.698 7.44 28.8 -5
4/17/2022 1:15:00 AM 12.73 54.914 7.44 29.11 -5
4/17/2022 1:30:00 AM 12.61 54.698 7.44 28.89 -5
4/17/2022 1:45:00 AM 12.49 54.482 7.44 29.41 -5
4/17/2022 2:00:00 AM 12.64 54.752 7.45 29.57 -5
4/17/2022 2:15:00 AM 12.35 54.23 7.44 29.32 -5
4/17/2022 2:30:00 AM 12.61 54.698 7.44 29.45 -5
4/17/2022 2:45:00 AM 12.49 54.482 7.45 29.05 -5
4/17/2022 3:00:00 AM 12.35 54.23 7.44 29.21 -5
4/17/2022 3:15:00 AM 12.49 54.482 7.45 29.09 -5
4/17/2022 3:30:00 AM 12.22 53.996 7.45 28.6 -5
4/17/2022 3:45:00 AM 12.36 54.248 7.44 28.57 -5
4/17/2022 4:00:00 AM 12.48 54.464 7.44 28.77 -5
4/17/2022 4:15:00 AM 12.17 53.906 7.45 28.4 -5
4/17/2022 4:30:00 AM 12.35 54.23 7.45 29.18 -5
4/17/2022 4:45:00 AM 12.35 54.23 7.45 28.68 -5
4/17/2022 5:00:00 AM 12.11 53.798 7.44 28.9 -5
4/17/2022 5:15:00 AM 12.35 54.23 7.45 28.84 -5
4/17/2022 5:30:00 AM 12.11 53.798 7.45 27.88 -5
4/17/2022 5:45:00 AM 12.22 53.996 7.44 28.67 -5
4/17/2022 6:00:00 AM 12.22 53.996 7.44 28.85 -5
4/17/2022 6:15:00 AM 11.97 53.546 7.44 28.38 -5
4/17/2022 6:30:00 AM 12.11 53.798 7.44 28.6 -5
4/17/2022 6:45:00 AM 12.11 53.798 7.44 29.27 -5
4/17/2022 7:00:00 AM 11.97 53.546 7.44 28.59 -5
4/17/2022 7:15:00 AM 12.11 53.798 7.44 28.82 -5
4/17/2022 7:30:00 AM 11.97 53.546 7.44 28.96 -5
4/17/2022 7:45:00 AM 11.97 53.546 7.44 28.97 -5
4/17/2022 8:00:00 AM 11.97 53.546 7.44 29.17 -5
4/17/2022 8:15:00 AM 11.73 53.114 7.45 28.45 -5
4/17/2022 8:30:00 AM 11.85 53.33 7.44 28.55 -5
4/17/2022 8:45:00 AM 11.97 53.546 7.44 27.65 -5
4/17/2022 9:00:00 AM 11.73 53.114 7.43 26.22 -5
4/17/2022 9:15:00 AM 11.73 53.114 7.44 26.84 -5
4/17/2022 9:30:00 AM 11.85 53.33 7.44 26.44 -5
4/17/2022 9:45:00 AM 11.85 53.33 7.43 26.33 -5
4/17/2022 10:00:00 AM 11.85 53.33 7.43 26.7 -5
4/17/2022 10:15:00 AM 11.97 53.546 7.44 26.07 -5
4/17/2022 10:30:00 AM 11.97 53.546 7.44 26.38 -5
4/17/2022 10:45:00 AM 11.73 53.114 7.44 26.57 -5
4/17/2022 11:00:00 AM 11.85 53.33 7.44 26.97 -5
4/17/2022 11:15:00 AM 11.97 53.546 7.44 26 -5
4/17/2022 11:30:00 AM 11.97 53.546 7.44 25.66 -5
4/17/2022 11:45:00 AM 11.97 53.546 7.45 26.46 -5
4/17/2022 12:00:00 PM 11.97 53.546 7.45 26.3 -5
4/17/2022 12:15:00 PM 11.97 53.546 7.45 25.12 -5
4/17/2022 12:30:00 PM 11.97 53.546 7.46 24.93 -5
4/17/2022 12:45:00 PM 11.97 53.546 7.45 24.79 -5
4/17/2022 1:00:00 PM 11.97 53.546 7.46 25.05 -5
4/17/2022 1:15:00 PM 11.97 53.546 7.47 25.16 -5
4/17/2022 1:30:00 PM 12.11 53.798 7.47 25.26 -5
4/17/2022 1:45:00 PM 12.11 53.798 7.47 25.18 -5
4/17/2022 2:00:00 PM 12.11 53.798 7.47 25.39 -5
4/17/2022 2:15:00 PM 11.97 53.546 7.47 25.15 -5
4/17/2022 2:30:00 PM 12.11 53.798 7.47 26.31 -5
4/17/2022 2:45:00 PM 12.11 53.798 7.47 25.62 -5
4/17/2022 3:00:00 PM 11.97 53.546 7.48 26.25 -5
4/17/2022 3:15:00 PM 11.85 53.33 7.47 25.52 -5
4/17/2022 3:30:00 PM 12.11 53.798 7.47 26.81 -5
4/17/2022 3:45:00 PM 12.11 53.798 7.48 25.5 -5
4/17/2022 4:00:00 PM 12.22 53.996 7.47 25.42 -5
4/17/2022 4:15:00 PM 11.97 53.546 7.47 25.61 -5
4/17/2022 4:30:00 PM 12.22 53.996 7.48 26.15 -5
4/17/2022 4:45:00 PM 12.22 53.996 7.49 25.92 -5
4/17/2022 5:00:00 PM 12.11 53.798 7.48 25.62 -5
4/17/2022 5:15:00 PM 12.35 54.23 7.49 26.5 -5
4/17/2022 5:30:00 PM 12.48 54.464 7.49 27.54 -5
4/17/2022 5:45:00 PM 12.35 54.23 7.49 28.73 -5
4/17/2022 6:00:00 PM 12.35 54.23 7.49 27.64 -5
4/17/2022 6:15:00 PM 12.48 54.464 7.49 26.29 -5
4/17/2022 6:30:00 PM 12.49 54.482 7.49 26.52 -5
4/17/2022 6:45:00 PM 12.35 54.23 7.5 26.04 -5
4/17/2022 7:00:00 PM 12.49 54.482 7.51 26.57 -5
4/17/2022 7:15:00 PM 12.49 54.482 7.51 26.71 -5
4/17/2022 7:30:00 PM 12.35 54.23 7.5 26.47 -5
4/17/2022 7:45:00 PM 12.49 54.482 7.5 27.38 -5
4/17/2022 8:00:00 PM 12.22 53.996 7.51 26.97 -5
4/17/2022 8:15:00 PM 12.35 54.23 7.51 27.95 -5
4/17/2022 8:30:00 PM 12.35 54.23 7.51 28.52 -5
4/17/2022 8:45:00 PM 12.11 53.798 7.52 28.29 -5
4/17/2022 9:00:00 PM 12.35 54.23 7.51 28.02 -5
4/17/2022 9:15:00 PM 12.35 54.23 7.51 27.98 -5
4/17/2022 9:30:00 PM 12.11 53.798 7.51 28.14 -5
4/17/2022 9:45:00 PM 12.22 53.996 7.51 28.56 -5
4/17/2022 10:00:00 PM 12.11 53.798 7.52 28.29 -5
4/17/2022 10:15:00 PM 12.11 53.798 7.52 27.94 -5
4/17/2022 10:30:00 PM 12.22 53.996 7.51 28.07 -5
4/17/2022 10:45:00 PM 12.11 53.798 7.52 27.11 -5
4/17/2022 11:00:00 PM 12.11 53.798 7.52 27.35 -5
4/17/2022 11:15:00 PM 12.11 53.798 7.52 27.64 -5
4/17/2022 11:30:00 PM 11.97 53.546 7.52 26.9 -5
4/17/2022 11:45:00 PM 11.97 53.546 7.52 27.04 -5
4/18/2022 12:00:00 AM 12.11 53.798 7.52 26.82 -5
4/18/2022 12:15:00 AM 11.97 53.546 7.52 26.58 -5
4/18/2022 12:30:00 AM 11.97 53.546 7.51 26.49 -5
4/18/2022 12:45:00 AM 11.97 53.546 7.51 26.4 -5
4/18/2022 1:00:00 AM 11.85 53.33 7.51 26.17 -5
4/18/2022 1:15:00 AM 11.85 53.33 7.51 25.79 -5
4/18/2022 1:30:00 AM 11.97 53.546 7.51 26.29 -5
4/18/2022 1:45:00 AM 11.74 53.132 7.51 25.71 -5
4/18/2022 2:00:00 AM 11.85 53.33 7.51 25.96 -5
4/18/2022 2:15:00 AM 11.85 53.33 7.51 25.71 -5
4/18/2022 2:30:00 AM 11.74 53.132 7.51 25.63 -5
4/18/2022 2:45:00 AM 11.59 52.862 7.51 25.96 -5
4/18/2022 3:00:00 AM 11.74 53.132 7.51 25.68 -5
4/18/2022 3:15:00 AM 11.73 53.114 7.5 25.28 -5
4/18/2022 3:30:00 AM 11.48 52.664 7.5 25.6 -5
4/18/2022 3:45:00 AM 11.48 52.664 7.5 25.57 -5
4/18/2022 4:00:00 AM 11.48 52.664 7.5 25.27 -5
4/18/2022 4:15:00 AM 11.48 52.664 7.5 24.71 -5
4/18/2022 4:30:00 AM 11.22 52.196 7.5 24.79 -5
4/18/2022 4:45:00 AM 11.36 52.448 7.49 24.25 -5
4/18/2022 5:00:00 AM 11.36 52.448 7.5 24.49 -5
4/18/2022 5:15:00 AM 11.36 52.448 7.49 24.14 -5
4/18/2022 5:30:00 AM 11.36 52.448 7.49 24.46 -5
4/18/2022 5:45:00 AM 11.21 52.178 7.49 24.59 -5
4/18/2022 6:00:00 AM 11.1 51.98 7.49 24.72 -5
4/18/2022 6:15:00 AM 11.22 52.196 7.48 25.04 -5
4/18/2022 6:30:00 AM 11.22 52.196 7.48 25.15 -5
4/18/2022 6:45:00 AM 11.1 51.98 7.48 25.06 -5
4/18/2022 7:00:00 AM 11.1 51.98 7.48 24.56 -5
4/18/2022 7:15:00 AM 11.1 51.98 7.48 17.75 -5
4/18/2022 7:30:00 AM 11.1 51.98 7.49 18.56 -5
4/18/2022 7:45:00 AM 11.1 51.98 7.49 18.7 -5
4/18/2022 8:00:00 AM 10.84 51.512 7.5 19.12 -5
4/18/2022 8:15:00 AM 11.1 51.98 7.49 19.18 -5
4/18/2022 8:30:00 AM 11.1 51.98 7.5 18.9 -5
4/18/2022 8:45:00 AM 11.1 51.98 7.49 18.59 -5
4/18/2022 9:00:00 AM 11.1 51.98 7.49 18.29 -5
4/18/2022 9:15:00 AM 10.72 51.296 7.5 18.48 -5
4/18/2022 9:30:00 AM 10.97 51.746 7.5 18.12 -5
4/18/2022 9:45:00 AM 10.97 51.746 7.49 18.26 -5
4/18/2022 10:00:00 AM 10.97 51.746 7.49 17.87 -5
4/18/2022 10:15:00 AM 10.72 51.296 7.49 17.86 -5
4/18/2022 10:30:00 AM 10.97 51.746 7.49 18.28 -5
4/18/2022 10:45:00 AM 10.97 51.746 7.5 18.35 -5
4/18/2022 11:00:00 AM 10.97 51.746 7.5 18.51 -5
4/18/2022 11:15:00 AM 10.72 51.296 7.49 18.64 -5
4/18/2022 11:30:00 AM 10.84 51.512 7.51 18.31 -5
4/18/2022 11:45:00 AM 10.97 51.746 7.5 18.53 -5
4/18/2022 12:00:00 PM 10.72 51.296 7.51 18.37 -5
4/18/2022 12:15:00 PM 10.72 51.296 7.51 18.15 -5
4/18/2022 12:30:00 PM 10.84 51.512 7.51 18.18 -5
4/18/2022 12:45:00 PM 10.84 51.512 7.52 18.3 -5
4/18/2022 1:00:00 PM 10.46 50.828 7.52 18.74 -5
4/18/2022 1:15:00 PM 10.72 51.296 7.52 18.7 -5
4/18/2022 1:30:00 PM 10.72 51.296 7.51 18.46 -5
4/18/2022 1:45:00 PM 10.46 50.828 7.51 18.91 -5
4/18/2022 2:00:00 PM 10.59 51.062 7.52 19.15 -5
4/18/2022 2:15:00 PM 10.59 51.062 7.52 19.11 -5
4/18/2022 2:30:00 PM 10.59 51.062 7.51 18.58 -5
4/18/2022 2:45:00 PM 10.46 50.828 7.52 18.44 -5
4/18/2022 3:00:00 PM 10.59 51.062 7.52 18.47 -5
4/18/2022 3:15:00 PM 10.59 51.062 7.51 17.9 -5
4/18/2022 3:30:00 PM 10.59 51.062 7.52 18.14 -5
4/18/2022 3:45:00 PM 10.34 50.612 7.52 17.56 -5
4/18/2022 4:00:00 PM 10.46 50.828 7.52 17.58 -5
4/18/2022 4:15:00 PM 10.46 50.828 7.52 17.45 -5
4/18/2022 4:30:00 PM 10.33 50.594 7.52 17.4 -5
4/18/2022 4:45:00 PM 10.33 50.594 7.52 17.76 -5
4/18/2022 5:00:00 PM 10.46 50.828 7.53 17.95 -5
4/18/2022 5:15:00 PM 10.46 50.828 7.51 18.36 -5
4/18/2022 5:30:00 PM 10.22 50.396 7.53 18 -5
4/18/2022 5:45:00 PM 10.46 50.828 7.53 18.33 -5
4/18/2022 6:00:00 PM 10.46 50.828 7.53 18.1 -5
4/18/2022 6:15:00 PM 10.33 50.594 7.53 17.61 -5
4/18/2022 6:30:00 PM 10.33 50.594 7.53 17.97 -5
4/18/2022 6:45:00 PM 10.46 50.828 7.53 17.97 -5
4/18/2022 7:00:00 PM 10.46 50.828 7.53 17.9 -5
4/18/2022 7:15:00 PM 10.22 50.396 7.54 17.84 -5
4/18/2022 7:30:00 PM 10.34 50.612 7.53 17.75 -5
4/18/2022 7:45:00 PM 10.34 50.612 7.54 17.53 -5
4/18/2022 8:00:00 PM 10.34 50.612 7.54 17.49 -5
4/18/2022 8:15:00 PM 10.09 50.162 7.54 17.51 -5
4/18/2022 8:30:00 PM 10.34 50.612 7.54 17.64 -5
4/18/2022 8:45:00 PM 10.34 50.612 7.54 17.58 -5
4/18/2022 9:00:00 PM 10.22 50.396 7.54 18.06 -5
4/18/2022 9:15:00 PM 10.08 50.144 7.53 17.79 -5
4/18/2022 9:30:00 PM 10.22 50.396 7.54 17.64 -5
4/18/2022 9:45:00 PM 10.22 50.396 7.54 17.7 -5
4/18/2022 10:00:00 PM 10.08 50.144 7.54 17.54 -5
4/18/2022 10:15:00 PM 9.96 49.928 7.54 17.59 -5
4/18/2022 10:30:00 PM 10.09 50.162 7.53 17.42 -5
4/18/2022 10:45:00 PM 10.09 50.162 7.53 17.35 -5
4/18/2022 11:00:00 PM 10.08 50.144 7.53 17.35 -5
4/18/2022 11:15:00 PM 9.85 49.73 7.53 17.11 -5
4/18/2022 11:30:00 PM 9.85 49.73 7.52 17.68 -5
4/18/2022 11:45:00 PM 9.85 49.73 7.53 17.04 -5
4/19/2022 12:00:00 AM 9.85 49.73 7.53 17.19 -5
4/19/2022 12:15:00 AM 9.85 49.73 7.52 17.1 -5
4/19/2022 12:30:00 AM 9.85 49.73 7.52 16.93 -5
4/19/2022 12:45:00 AM 9.58 49.244 7.52 16.97 -5
4/19/2022 1:00:00 AM 9.7 49.46 7.52 17 -5
4/19/2022 1:15:00 AM 9.7 49.46 7.52 16.87 -5
4/19/2022 1:30:00 AM 9.7 49.46 7.52 16.83 -5
4/19/2022 1:45:00 AM 9.47 49.046 7.51 17.17 -5
4/19/2022 2:00:00 AM 9.47 49.046 7.51 17.06 -5
4/19/2022 2:15:00 AM 9.59 49.262 7.51 16.78 -5
4/19/2022 2:30:00 AM 9.59 49.262 7.51 16.71 -5
4/19/2022 2:45:00 AM 9.59 49.262 7.51 16.57 -5
4/19/2022 3:00:00 AM 9.59 49.262 7.51 16.88 -5
4/19/2022 3:15:00 AM 9.47 49.046 7.51 16.76 -5
4/19/2022 3:30:00 AM 9.47 49.046 7.5 16.78 -5
4/19/2022 3:45:00 AM 9.47 49.046 7.5 16.78 -5
4/19/2022 4:00:00 AM 9.47 49.046 7.5 16.54 -5
4/19/2022 4:15:00 AM 9.33 48.794 7.5 16.69 -5
4/19/2022 4:30:00 AM 9.32 48.776 7.5 17.19 -5
4/19/2022 4:45:00 AM 9.33 48.794 7.5 17.01 -5
4/19/2022 5:00:00 AM 9.32 48.776 7.49 17.13 -5
4/19/2022 5:15:00 AM 9.21 48.578 7.5 16.74 -5
4/19/2022 5:30:00 AM 9.21 48.578 7.5 16.78 -5
4/19/2022 5:45:00 AM 9.21 48.578 7.49 17.09 -5
4/19/2022 6:00:00 AM 9.21 48.578 7.5 16.78 -5
4/19/2022 6:15:00 AM 9.17 48.506 7.5 16.79 -5
4/19/2022 6:30:00 AM 9.21 48.578 7.49 16.64 -5
4/19/2022 6:45:00 AM 9.08 48.344 7.5 16.98 -5
4/19/2022 7:00:00 AM 8.95 48.11 7.5 16.98 -5
4/19/2022 7:15:00 AM 9.08 48.344 7.49 17.44 -5
4/19/2022 7:30:00 AM 9.09 48.362 7.49 17.57 -5
4/19/2022 7:45:00 AM 9.08 48.344 7.49 17.69 -5
4/19/2022 8:00:00 AM 9.08 48.344 7.49 17.83 -5
4/19/2022 8:15:00 AM 9.08 48.344 7.49 18.17 -5
4/19/2022 8:30:00 AM 9.08 48.344 7.49 17.85 -5
4/19/2022 8:45:00 AM 9.08 48.344 7.48 16.97 -5
4/19/2022 9:00:00 AM 9.09 48.362 7.48 17.03 -5
4/19/2022 9:15:00 AM 9.08 48.344 7.48 16.99 -5
4/19/2022 9:30:00 AM 9.08 48.344 7.49 16.99 -5
4/19/2022 9:45:00 AM 9.09 48.362 7.49 17.07 -5
4/19/2022 10:00:00 AM 9.21 48.578 7.49 16.78 -5
4/19/2022 10:15:00 AM 9.21 48.578 7.49 17.21 -5
4/19/2022 10:30:00 AM 9.21 48.578 7.49 16.87 -5
4/19/2022 10:45:00 AM 9.21 48.578 7.49 16.48 -5
4/19/2022 11:00:00 AM 9.21 48.578 7.49 16.5 -5
4/19/2022 11:15:00 AM 9.21 48.578 7.5 16.63 -5
4/19/2022 11:30:00 AM 9.21 48.578 7.48 15.92 -5
4/19/2022 11:45:00 AM 9.21 48.578 7.5 16.56 -5
4/19/2022 12:00:00 PM 9.21 48.578 7.5 16.42 -5
4/19/2022 12:15:00 PM 9.21 48.578 7.5 16.52 -5
4/19/2022 12:30:00 PM 9.21 48.578 7.51 16.6 -5
4/19/2022 12:45:00 PM 9.33 48.794 7.5 16.04 -5
4/19/2022 1:00:00 PM 9.32 48.776 7.5 16.34 -5
4/19/2022 1:15:00 PM 9.32 48.776 7.51 16.58 -5
4/19/2022 1:30:00 PM 9.47 49.046 7.5 16.38 -5
4/19/2022 1:45:00 PM 9.47 49.046 7.52 16.43 -5
4/19/2022 2:00:00 PM 9.47 49.046 7.51 16.08 -5
4/19/2022 2:15:00 PM 9.47 49.046 7.52 16.32 -5
4/19/2022 2:30:00 PM 9.47 49.046 7.52 16.31 -5
4/19/2022 2:45:00 PM 9.47 49.046 7.52 16 -5
4/19/2022 3:00:00 PM 9.59 49.262 7.51 16.29 -5
4/19/2022 3:15:00 PM 9.47 49.046 7.53 16.24 -5
4/19/2022 3:30:00 PM 9.58 49.244 7.53 16.41 -5
4/19/2022 3:45:00 PM 9.58 49.244 7.54 16.52 -5
4/19/2022 4:00:00 PM 9.59 49.262 7.54 16.67 -5
4/19/2022 4:15:00 PM 9.7 49.46 7.54 16.88 -5
4/19/2022 4:30:00 PM 9.7 49.46 7.55 18.25 -5
4/19/2022 4:45:00 PM 9.7 49.46 7.55 18.08 -5
4/19/2022 5:00:00 PM 9.7 49.46 7.56 18.76 -5
4/19/2022 5:15:00 PM 9.7 49.46 7.56 18.65 -5
4/19/2022 5:30:00 PM 9.47 49.046 7.56 18.61 -5
4/19/2022 5:45:00 PM 9.7 49.46 7.57 18.36 -5
4/19/2022 6:00:00 PM 9.7 49.46 7.56 19.18 -5
4/19/2022 6:15:00 PM 9.7 49.46 7.57 19.16 -5
4/19/2022 6:30:00 PM 9.67 49.406 7.57 19.85 -5
4/19/2022 6:45:00 PM 9.59 49.262 7.57 19.68 -5
4/19/2022 7:00:00 PM 9.59 49.262 7.58 19.53 -5
4/19/2022 7:15:00 PM 9.59 49.262 7.58 19.14 -5
4/19/2022 7:30:00 PM 9.49 49.082 7.58 18.79 -5
4/19/2022 7:45:00 PM 9.47 49.046 7.58 19.35 -5
4/19/2022 8:00:00 PM 9.47 49.046 7.58 19.75 -5
4/19/2022 8:15:00 PM 9.47 49.046 7.58 20.21 -5
4/19/2022 8:30:00 PM 9.59 49.262 7.58 20.29 -5
4/19/2022 8:45:00 PM 9.21 48.578 7.58 20.19 -5
4/19/2022 9:00:00 PM 9.47 49.046 7.58 19.74 -5
4/19/2022 9:15:00 PM 9.59 49.262 7.58 19.37 -5
4/19/2022 9:30:00 PM 9.32 48.776 7.58 19.61 -5
4/19/2022 9:45:00 PM 9.59 49.262 7.58 18.74 -5
4/19/2022 10:00:00 PM 9.59 49.262 7.59 18.73 -5
4/19/2022 10:15:00 PM 9.7 49.46 7.58 19.47 -5
4/19/2022 10:30:00 PM 9.32 48.776 7.58 19.21 -5
4/19/2022 10:45:00 PM 9.58 49.244 7.59 19.34 -5
4/19/2022 11:00:00 PM 9.59 49.262 7.58 19.35 -5
4/19/2022 11:15:00 PM 9.59 49.262 7.58 19.08 -5
4/19/2022 11:30:00 PM 9.32 48.776 7.58 18.89 -5
4/19/2022 11:45:00 PM 9.33 48.794 7.58 19.3 -5
4/20/2022 12:00:00 AM 9.47 49.046 7.58 19.35 -5
4/20/2022 12:15:00 AM 9.33 48.794 7.58 18.94 -5
4/20/2022 12:30:00 AM 9.32 48.776 7.58 19.07 -5
4/20/2022 12:45:00 AM 9.47 49.046 7.58 19.27 -5
4/20/2022 1:00:00 AM 9.32 48.776 7.58 19.59 -5
4/20/2022 1:15:00 AM 9.22 48.596 7.57 20.08 -5
4/20/2022 1:30:00 AM 9.32 48.776 7.57 20.1 -5
4/20/2022 1:45:00 AM 9.32 48.776 7.57 20.58 -5
4/20/2022 2:00:00 AM 9.21 48.578 7.57 20.62 -5
4/20/2022 2:15:00 AM 9.33 48.794 7.57 20.64 -5
4/20/2022 2:30:00 AM 9.08 48.344 7.57 20.66 -5
4/20/2022 2:45:00 AM 9.21 48.578 7.57 20.94 -5
4/20/2022 3:00:00 AM 9.32 48.776 7.56 20.97 -5
4/20/2022 3:15:00 AM 9.09 48.362 7.56 21.71 -5
4/20/2022 3:30:00 AM 9.21 48.578 7.56 21.87 -5
4/20/2022 3:45:00 AM 9.21 48.578 7.56 21.76 -5
4/20/2022 4:00:00 AM 9.04 48.272 7.56 21.68 -5
4/20/2022 4:15:00 AM 8.95 48.11 7.56 22.06 -5
4/20/2022 4:30:00 AM 9.09 48.362 7.55 21.97 -5
4/20/2022 4:45:00 AM 9.09 48.362 7.55 22.27 -5
4/20/2022 5:00:00 AM 8.71 47.678 7.55 22.41 -5
4/20/2022 5:15:00 AM 8.95 48.11 7.55 22.62 -5
4/20/2022 5:30:00 AM 8.95 48.11 7.54 22.32 -5
4/20/2022 5:45:00 AM 8.83 47.894 7.54 22.68 -5
4/20/2022 6:00:00 AM 8.84 47.912 7.53 22.79 -5
4/20/2022 6:15:00 AM 8.83 47.894 7.53 23.04 -5
4/20/2022 6:30:00 AM 8.71 47.678 7.53 23.02 -5
4/20/2022 6:45:00 AM 8.71 47.678 7.53 22.87 -5
4/20/2022 7:00:00 AM 8.58 47.444 7.52 22.88 -5
4/20/2022 7:15:00 AM 8.58 47.444 7.52 20.22 -5
4/20/2022 7:30:00 AM 8.71 47.678 7.51 20.74 -5
4/20/2022 7:45:00 AM 8.58 47.444 7.51 21.2 -5
4/20/2022 8:00:00 AM 8.58 47.444 7.51 21.62 -5
4/20/2022 8:15:00 AM 8.71 47.678 7.5 20.61 -5
4/20/2022 8:30:00 AM 8.71 47.678 7.49 20.58 -5
4/20/2022 8:45:00 AM 8.71 47.678 7.49 21.2 -5
4/20/2022 9:00:00 AM 8.71 47.678 7.49 21.22 -5
4/20/2022 9:15:00 AM 8.71 47.678 7.49 22.14 -5
4/20/2022 9:30:00 AM 8.71 47.678 7.49 22.04 -5
4/20/2022 9:45:00 AM 8.51 47.318 7.49 22.16 -5
4/20/2022 10:00:00 AM 8.71 47.678 7.5 22.09 -5
4/20/2022 10:15:00 AM 8.71 47.678 7.5 22.04 -5
4/20/2022 10:30:00 AM 8.84 47.912 7.5 22.7 -5
4/20/2022 10:45:00 AM 8.84 47.912 7.49 22.57 -5
4/20/2022 11:00:00 AM 8.84 47.912 7.5 23.22 -5
4/20/2022 11:15:00 AM 8.71 47.678 7.51 23.34 -5
4/20/2022 11:30:00 AM 8.83 47.894 7.5 22.78 -5
4/20/2022 11:45:00 AM 8.95 48.11 7.5 23.57 -5
4/20/2022 12:00:00 PM 8.95 48.11 7.5 22.96 -5
4/20/2022 12:15:00 PM 9.08 48.344 7.51 23.2 -5
4/20/2022 12:30:00 PM 9.09 48.362 7.5 23.31 -5
4/20/2022 12:45:00 PM 8.83 47.894 7.52 23.69 -5
4/20/2022 1:00:00 PM 9.21 48.578 7.52 23.73 -5
4/20/2022 1:15:00 PM 9.33 48.794 7.51 23.59 -5
4/20/2022 1:30:00 PM 9.21 48.578 7.51 23.73 -5
4/20/2022 1:45:00 PM 9.21 48.578 7.51 23.34 -5
4/20/2022 2:00:00 PM 9.47 49.046 7.52 23.46 -5
4/20/2022 2:15:00 PM 9.47 49.046 7.51 23.11 -5
4/20/2022 2:30:00 PM 9.47 49.046 7.52 23.79 -5
4/20/2022 2:45:00 PM 9.7 49.46 7.52 23.88 -5
4/20/2022 3:00:00 PM 9.58 49.244 7.52 24.04 -5
4/20/2022 3:15:00 PM 9.7 49.46 7.5 24.12 -5
4/20/2022 3:30:00 PM 9.96 49.928 7.51 24.63 -5
4/20/2022 3:45:00 PM 9.7 49.46 7.51 24.27 -5
4/20/2022 4:00:00 PM 9.96 49.928 7.51 25.29 -5
4/20/2022 4:15:00 PM 10.09 50.162 7.51 25.03 -5
4/20/2022 4:30:00 PM 9.85 49.73 7.5 25.3 -5
4/20/2022 4:45:00 PM 10.22 50.396 7.51 25.55 -5
4/20/2022 5:00:00 PM 9.96 49.928 7.5 25.06 -5
4/20/2022 5:15:00 PM 10.22 50.396 7.51 26.53 -5
4/20/2022 5:30:00 PM 10.09 50.162 7.48 25.31 -5
4/20/2022 5:45:00 PM 10.22 50.396 7.48 26.6 -5
4/20/2022 6:00:00 PM 10.33 50.594 7.5 27.74 -5
4/20/2022 6:15:00 PM 10.08 50.144 7.49 28.29 -5
4/20/2022 6:30:00 PM 10.34 50.612 7.48 29.48 -5
4/20/2022 6:45:00 PM 10.09 50.162 7.48 29.41 -5
4/20/2022 7:00:00 PM 10.34 50.612 7.48 31.21 -5
4/20/2022 7:15:00 PM 10.22 50.396 7.47 32.55 -5
4/20/2022 7:30:00 PM 10.34 50.612 7.47 32.93 -5
4/20/2022 7:45:00 PM 10.22 50.396 7.47 33.64 -5
4/20/2022 8:00:00 PM 10.33 50.594 7.46 34.78 -5
4/20/2022 8:15:00 PM 10.33 50.594 7.46 34.85 -5
4/20/2022 8:30:00 PM 10.22 50.396 7.46 35.99 -5
4/20/2022 8:45:00 PM 10.46 50.828 7.45 36.83 -5
4/20/2022 9:00:00 PM 10.22 50.396 7.45 36.56 -5
4/20/2022 9:15:00 PM 10.46 50.828 7.44 37.83 -5
4/20/2022 9:30:00 PM 10.22 50.396 7.44 37.81 -5
4/20/2022 9:45:00 PM 10.34 50.612 7.44 38.49 -5
4/20/2022 10:00:00 PM 10.22 50.396 7.44 37.83 -5
4/20/2022 10:15:00 PM 10.34 50.612 7.43 38.58 -5
4/20/2022 10:30:00 PM 10.46 50.828 7.43 38.72 -5
4/20/2022 10:45:00 PM 10.09 50.162 7.43 38.89 -5
4/20/2022 11:00:00 PM 10.34 50.612 7.43 39.37 -5
4/20/2022 11:15:00 PM 10.09 50.162 7.43 39.23 -5
4/20/2022 11:30:00 PM 10.34 50.612 7.43 38.71 -5
4/20/2022 11:45:00 PM 10.22 50.396 7.43 38.35 -5
4/21/2022 12:00:00 AM 10.22 50.396 7.42 37.32 -5
4/21/2022 12:15:00 AM 10.34 50.612 7.42 37.01 -5
4/21/2022 12:30:00 AM 10.09 50.162 7.42 36.8 -5
4/21/2022 12:45:00 AM 10.33 50.594 7.42 36.63 -5
4/21/2022 1:00:00 AM 10.09 50.162 7.42 36.61 -5
4/21/2022 1:15:00 AM 10.34 50.612 7.42 36.45 -5
4/21/2022 1:30:00 AM 10.09 50.162 7.42 36.28 -5
4/21/2022 1:45:00 AM 10.22 50.396 7.42 36.14 -5
4/21/2022 2:00:00 AM 10.09 50.162 7.42 36.45 -5
4/21/2022 2:15:00 AM 10.09 50.162 7.42 35.43 -5
4/21/2022 2:30:00 AM 10.22 50.396 7.42 37.25 -5
4/21/2022 2:45:00 AM 9.96 49.928 7.42 36.68 -5
4/21/2022 3:00:00 AM 10.22 50.396 7.41 36.47 -5
4/21/2022 3:15:00 AM 9.85 49.73 7.41 35.46 -5
4/21/2022 3:30:00 AM 10.09 50.162 7.41 35.13 -5
4/21/2022 3:45:00 AM 9.85 49.73 7.41 35.07 -5
4/21/2022 4:00:00 AM 9.96 49.928 7.41 34.56 -5
4/21/2022 4:15:00 AM 9.85 49.73 7.41 33.98 -5
4/21/2022 4:30:00 AM 9.96 49.928 7.41 34 -5
4/21/2022 4:45:00 AM 9.96 49.928 7.41 33.4 -5
4/21/2022 5:00:00 AM 9.7 49.46 7.41 33.46 -5
4/21/2022 5:15:00 AM 9.96 49.928 7.41 32.84 -5
4/21/2022 5:30:00 AM 9.59 49.262 7.41 31.97 -5
4/21/2022 5:45:00 AM 9.85 49.73 7.41 31.64 -5
4/21/2022 6:00:00 AM 9.59 49.262 7.41 30.95 -5
4/21/2022 6:15:00 AM 9.85 49.73 7.41 30.93 -5
4/21/2022 6:30:00 AM 9.59 49.262 7.41 30.54 -5
4/21/2022 6:45:00 AM 9.7 49.46 7.41 30.17 -5
4/21/2022 7:00:00 AM 9.58 49.244 7.41 29.55 -5
4/21/2022 7:15:00 AM 9.59 49.262 7.41 29.76 -5
4/21/2022 7:30:00 AM 9.7 49.46 7.4 25.82 -5
4/21/2022 7:45:00 AM 9.47 49.046 7.4 25.38 -5
4/21/2022 8:00:00 AM 9.7 49.46 7.4 25.31 -5
4/21/2022 8:15:00 AM 9.47 49.046 7.4 24.3 -5
4/21/2022 8:30:00 AM 9.7 49.46 7.39 24.76 -5
4/21/2022 8:45:00 AM 9.59 49.262 7.39 24.66 -5
4/21/2022 9:00:00 AM 9.59 49.262 7.39 25.48 -5
4/21/2022 9:15:00 AM 9.7 49.46 7.39 25.14 -5
4/21/2022 9:30:00 AM 9.47 49.046 7.39 25.03 -5
4/21/2022 9:45:00 AM 9.7 49.46 7.4 25.52 -5
4/21/2022 10:00:00 AM 9.59 49.262 7.39 25.27 -5
4/21/2022 10:15:00 AM 9.7 49.46 7.39 24.87 -5
4/21/2022 10:30:00 AM 9.96 49.928 7.39 24.39 -5
4/21/2022 10:45:00 AM 9.59 49.262 7.38 24.59 -5
4/21/2022 11:00:00 AM 9.96 49.928 7.39 24.6 -5
4/21/2022 11:15:00 AM 9.7 49.46 7.39 24.47 -5
4/21/2022 11:30:00 AM 9.96 49.928 7.38 24.17 -5
4/21/2022 11:45:00 AM 9.96 49.928 7.38 23.34 -5
4/21/2022 12:00:00 PM 9.96 49.928 7.38 23.07 -5
4/21/2022 12:15:00 PM 10.22 50.396 7.38 22.71 -5
4/21/2022 12:30:00 PM 9.96 49.928 7.38 22.94 -5
4/21/2022 12:45:00 PM 10.22 50.396 7.38 22.66 -5
4/21/2022 1:00:00 PM 10.08 50.144 7.39 22.71 -5
4/21/2022 1:15:00 PM 10.22 50.396 7.38 22.07 -5
4/21/2022 1:30:00 PM 10.22 50.396 7.39 23.25 -5
4/21/2022 1:45:00 PM 9.96 49.928 7.38 22.12 -5
4/21/2022 2:00:00 PM 10.22 50.396 7.38 22.86 -5
4/21/2022 2:15:00 PM 10.09 50.162 7.38 22.91 -5
4/21/2022 2:30:00 PM 10.22 50.396 7.38 22.57 -5
4/21/2022 2:45:00 PM 10.22 50.396 7.4 23.25 -5
4/21/2022 3:00:00 PM 9.96 49.928 7.38 21.98 -5
4/21/2022 3:15:00 PM 10.22 50.396 7.39 22.65 -5
4/21/2022 3:30:00 PM 9.96 49.928 7.39 22.63 -5
4/21/2022 3:45:00 PM 10.22 50.396 7.38 21.51 -5
4/21/2022 4:00:00 PM 10.22 50.396 7.39 22.77 -5
4/21/2022 4:15:00 PM 10.08 50.144 7.39 22.11 -5
4/21/2022 4:30:00 PM 10.22 50.396 7.39 22.31 -5
4/21/2022 4:45:00 PM 9.96 49.928 7.39 23.07 -5
4/21/2022 5:00:00 PM 10.22 50.396 7.4 25.03 -5
4/21/2022 5:15:00 PM 10.09 50.162 7.4 25.08 -5
4/21/2022 5:30:00 PM 10.22 50.396 7.4 24.21 -5
4/21/2022 5:45:00 PM 10.22 50.396 7.41 23.1 -5
4/21/2022 6:00:00 PM 9.96 49.928 7.41 22.47 -5
4/21/2022 6:15:00 PM 10.22 50.396 7.41 21.94 -5
4/21/2022 6:30:00 PM 9.96 49.928 7.41 21.99 -5
4/21/2022 6:45:00 PM 10.22 50.396 7.41 21.6 -5
4/21/2022 7:00:00 PM 10.09 50.162 7.41 21.46 -5
4/21/2022 7:15:00 PM 10.22 50.396 7.41 21.79 -5
4/21/2022 7:30:00 PM 10.22 50.396 7.42 21.87 -5
4/21/2022 7:45:00 PM 10.09 50.162 7.41 22 -5
4/21/2022 8:00:00 PM 10.34 50.612 7.42 21.81 -5
4/21/2022 8:15:00 PM 10.08 50.144 7.42 21.33 -5
4/21/2022 8:30:00 PM 10.34 50.612 7.42 21.4 -5
4/21/2022 8:45:00 PM 10.21 50.378 7.42 21.07 -5
4/21/2022 9:00:00 PM 10.22 50.396 7.41 21.66 -5
4/21/2022 9:15:00 PM 10.22 50.396 7.42 21.87 -5
4/21/2022 9:30:00 PM 10.08 50.144 7.42 21.61 -5
4/21/2022 9:45:00 PM 10.34 50.612 7.42 21.14 -5
4/21/2022 10:00:00 PM 10.09 50.162 7.42 20.58 -5
4/21/2022 10:15:00 PM 10.33 50.594 7.42 20.67 -5
4/21/2022 10:30:00 PM 10.22 50.396 7.41 20.78 -5
4/21/2022 10:45:00 PM 10.22 50.396 7.42 20.58 -5
4/21/2022 11:00:00 PM 10.34 50.612 7.41 20.58 -5
4/21/2022 11:15:00 PM 10.09 50.162 7.41 20.45 -5
4/21/2022 11:30:00 PM 10.34 50.612 7.41 20.03 -5
4/21/2022 11:45:00 PM 10.08 50.144 7.41 20.19 -5
4/22/2022 12:00:00 AM 10.34 50.612 7.41 20.27 -5
4/22/2022 12:15:00 AM 10.22 50.396 7.4 20.11 -5
4/22/2022 12:30:00 AM 10.22 50.396 7.4 19.78 -5
4/22/2022 12:45:00 AM 10.46 50.828 7.4 19.93 -5
4/22/2022 1:00:00 AM 10.08 50.144 7.4 20.16 -5
4/22/2022 1:15:00 AM 10.35 50.63 7.38 20.12 -5
4/22/2022 1:30:00 AM 10.34 50.612 7.37 20.58 -5
4/22/2022 1:45:00 AM 10.22 50.396 7.36 20.55 -5
4/22/2022 2:00:00 AM 10.46 50.828 7.35 19.75 -5
4/22/2022 2:15:00 AM 10.09 50.162 7.36 20.52 -5
4/22/2022 2:30:00 AM 10.34 50.612 7.35 20.41 -5
4/22/2022 2:45:00 AM 10.22 50.396 7.35 20.62 -5
4/22/2022 3:00:00 AM 10.22 50.396 7.36 20.44 -5
4/22/2022 3:15:00 AM 10.33 50.594 7.35 20.69 -5
4/22/2022 3:30:00 AM 10.09 50.162 7.35 20.43 -5
4/22/2022 3:45:00 AM 10.34 50.612 7.35 21.54 -5
4/22/2022 4:00:00 AM 10.22 50.396 7.35 21.73 -5
4/22/2022 4:15:00 AM 10.22 50.396 7.36 22.03 -5
4/22/2022 4:30:00 AM 10.33 50.594 7.34 21.88 -5
4/22/2022 4:45:00 AM 10.09 50.162 7.34 22.06 -5
4/22/2022 5:00:00 AM 10.22 50.396 7.35 21.84 -5
4/22/2022 5:15:00 AM 10.22 50.396 7.34 21.86 -5
4/22/2022 5:30:00 AM 10.09 50.162 7.35 22.03 -5
4/22/2022 5:45:00 AM 10.22 50.396 7.36 22.26 -5
4/22/2022 6:00:00 AM 10.08 50.144 7.35 22.34 -5
4/22/2022 6:15:00 AM 10.09 50.162 7.34 21.95 -5
4/22/2022 6:30:00 AM 10.22 50.396 7.3 21.92 -5
4/22/2022 6:45:00 AM 9.96 49.928 7.3 22.17 -5
4/22/2022 7:00:00 AM 10.09 50.162 7.3 22.03 -5
4/22/2022 7:15:00 AM 10.22 50.396 7.27 22.16 -5
4/22/2022 7:30:00 AM 9.58 49.244 7.37 19.37 -5
4/22/2022 7:45:00 AM 9.85 49.73 7.35 19.18 -5
4/22/2022 8:00:00 AM 9.85 49.73 7.33 19.24 -5
4/22/2022 8:15:00 AM 9.59 49.262 7.33 18.19 -5
4/22/2022 8:30:00 AM 9.85 49.73 7.32 18.71 -5
4/22/2022 8:45:00 AM 9.7 49.46 7.32 18.07 -5
4/22/2022 9:00:00 AM 9.7 49.46 7.33 18.95 -5
4/22/2022 9:15:00 AM 9.85 49.73 7.33 18.94 -5
4/22/2022 9:30:00 AM 9.7 49.46 7.34 19.28 -5
4/22/2022 9:45:00 AM 9.85 49.73 7.34 19.28 -5
4/22/2022 10:00:00 AM 9.85 49.73 7.34 38.07 -5
4/22/2022 10:15:00 AM 9.7 49.46 7.34 18.44 -5
4/22/2022 10:30:00 AM 9.96 49.928 7.34 17.98 -5
4/22/2022 10:45:00 AM 10.08 50.144 7.34 18.75 -5
4/22/2022 11:00:00 AM 10.08 50.144 7.34 18.96 -5
4/22/2022 11:15:00 AM 10.07 50.126 7.34 18.47 -5
4/22/2022 11:30:00 AM 10.22 50.396 7.34 19.18 -5
4/22/2022 11:45:00 AM 10.08 50.144 7.34 19.46 -5
4/22/2022 12:00:00 PM 10.22 50.396 7.34 19.79 -5
4/22/2022 12:15:00 PM 10.46 50.828 7.34 19.73 -5
4/22/2022 12:30:00 PM 10.22 50.396 7.34 20.07 -5
4/22/2022 12:45:00 PM 10.46 50.828 7.34 19.8 -5
4/22/2022 1:00:00 PM 10.46 50.828 7.34 20 -5
4/22/2022 1:15:00 PM 10.46 50.828 7.34 20.11 -5
4/22/2022 1:30:00 PM 10.72 51.296 7.34 19.47 -5
4/22/2022 1:45:00 PM 10.59 51.062 7.34 19.7 -5
4/22/2022 2:00:00 PM 10.72 51.296 7.7 19.81 -5
4/22/2022 2:15:00 PM 10.59 51.062 7.72 20.34 -5
4/22/2022 2:30:00 PM 10.72 51.296 7.72 20.18 -5
4/22/2022 2:45:00 PM 10.59 51.062 7.74 19.97 -5
4/22/2022 3:00:00 PM 10.84 51.512 7.75 19.99 -5
4/22/2022 3:15:00 PM 10.72 51.296 7.73 19.05 -5
4/22/2022 3:30:00 PM 10.97 51.746 7.76 19.65 -5
4/22/2022 3:45:00 PM 10.72 51.296 7.77 19.51 -5
4/22/2022 4:00:00 PM 10.97 51.746 7.78 19.43 -5
4/22/2022 4:15:00 PM 10.84 51.512 7.79 19.68 -5
4/22/2022 4:30:00 PM 11.1 51.98 7.77 18.92 -5
4/22/2022 4:45:00 PM 11.1 51.98 7.8 19.59 -5
4/22/2022 5:00:00 PM 11.1 51.98 7.81 19.72 -5
4/22/2022 5:15:00 PM 11.22 52.196 7.81 19.44 -5
4/22/2022 5:30:00 PM 11.1 51.98 7.82 19.31 -5
4/22/2022 5:45:00 PM 11.25 52.25 7.83 19.67 -5
4/22/2022 6:00:00 PM 11.1 51.98 7.82 19.14 -5
4/22/2022 6:15:00 PM 11.36 52.448 7.84 20.29 -5
4/22/2022 6:30:00 PM 11.22 52.196 7.83 20.64 -5
4/22/2022 6:45:00 PM 11.36 52.448 7.85 20.95 -5
4/22/2022 7:00:00 PM 11.36 52.448 7.86 21.5 -5
4/22/2022 7:15:00 PM 11.36 52.448 7.85 21.03 -5
4/22/2022 7:30:00 PM 11.48 52.664 7.86 20.86 -5
4/22/2022 7:45:00 PM 11.36 52.448 7.86 21.07 -5
4/22/2022 8:00:00 PM 11.48 52.664 7.87 21.16 -5
4/22/2022 8:15:00 PM 11.48 52.664 7.87 20.5 -5
4/22/2022 8:30:00 PM 11.48 52.664 7.85 20.08 -5
4/22/2022 8:45:00 PM 11.59 52.862 7.86 20.72 -5
4/22/2022 9:00:00 PM 11.48 52.664 7.87 20.4 -5
4/22/2022 9:15:00 PM 11.59 52.862 7.87 20.7 -5
4/22/2022 9:30:00 PM 11.48 52.664 7.87 21.57 -5
4/22/2022 9:45:00 PM 11.59 52.862 7.87 21.27 -5
4/22/2022 10:00:00 PM 11.48 52.664 7.86 20.92 -5
4/22/2022 10:15:00 PM 11.48 52.664 7.86 21.52 -5
4/22/2022 10:30:00 PM 11.48 52.664 7.87 21.83 -5
4/22/2022 10:45:00 PM 11.47 52.646 7.86 21.34 -5
4/22/2022 11:00:00 PM 11.59 52.862 7.86 21.65 -5
4/22/2022 11:15:00 PM 11.48 52.664 7.86 21.41 -5
4/22/2022 11:30:00 PM 11.59 52.862 7.85 21.22 -5
4/22/2022 11:45:00 PM 11.36 52.448 7.85 21.29 -5
4/23/2022 12:00:00 AM 11.59 52.862 7.85 21.54 -5
4/23/2022 12:15:00 AM 11.36 52.448 7.85 21.34 -5
4/23/2022 12:30:00 AM 11.59 52.862 7.84 22.07 -5
4/23/2022 12:45:00 AM 11.36 52.448 7.83 21.47 -5
4/23/2022 1:00:00 AM 11.47 52.646 7.84 22.05 -5
4/23/2022 1:15:00 AM 11.36 52.448 7.83 21.96 -5
4/23/2022 1:30:00 AM 11.48 52.664 7.83 21.64 -5
4/23/2022 1:45:00 AM 11.36 52.448 7.83 22.62 -5
4/23/2022 2:00:00 AM 11.48 52.664 7.83 22.33 -5
4/23/2022 2:15:00 AM 11.36 52.448 7.83 22.84 -5
4/23/2022 2:30:00 AM 11.36 52.448 7.82 22.37 -5
4/23/2022 2:45:00 AM 11.36 52.448 7.82 22.71 -5
4/23/2022 3:00:00 AM 11.22 52.196 7.81 22.91 -5
4/23/2022 3:15:00 AM 11.36 52.448 7.82 22.81 -5
4/23/2022 3:30:00 AM 11.22 52.196 7.81 23.07 -5
4/23/2022 3:45:00 AM 11.36 52.448 7.81 23.3 -5
4/23/2022 4:00:00 AM 11.22 52.196 7.81 23.07 -5
4/23/2022 4:15:00 AM 11.36 52.448 7.81 22.97 -5
4/23/2022 4:30:00 AM 11.1 51.98 7.8 23.31 -5
4/23/2022 4:45:00 AM 11.36 52.448 7.8 23.63 -5
4/23/2022 5:00:00 AM 11.1 51.98 7.8 23.23 -5
4/23/2022 5:15:00 AM 11.22 52.196 7.8 23.32 -5
4/23/2022 5:30:00 AM 11.1 51.98 7.79 23.36 -5
4/23/2022 5:45:00 AM 11.22 52.196 7.78 23.73 -5
4/23/2022 6:00:00 AM 11.1 51.98 7.79 23.9 -5
4/23/2022 6:15:00 AM 11.22 52.196 7.78 23.84 -5
4/23/2022 6:30:00 AM 11.1 51.98 7.78 24.25 -5
4/23/2022 6:45:00 AM 11.22 52.196 7.78 24.5 -5
4/23/2022 7:00:00 AM 11.1 51.98 7.78 24.82 -5
4/23/2022 7:15:00 AM 11.1 51.98 7.78 24.83 -5
4/23/2022 7:30:00 AM 11.1 51.98 7.78 24.36 -5
4/23/2022 7:45:00 AM 11.1 51.98 7.77 24.64 -5
4/23/2022 8:00:00 AM 11.1 51.98 7.77 24.48 -5
4/23/2022 8:15:00 AM 11.1 51.98 7.77 24.76 -5
4/23/2022 8:30:00 AM 11.1 51.98 7.77 24.55 -5
4/23/2022 8:45:00 AM 10.97 51.746 7.77 24.94 -5
4/23/2022 9:00:00 AM 11.1 51.98 7.77 25.18 -5
4/23/2022 9:15:00 AM 10.97 51.746 7.77 24.91 -5
4/23/2022 9:30:00 AM 11.1 51.98 7.77 25.05 -5
4/23/2022 9:45:00 AM 10.84 51.512 7.77 25.06 -5
4/23/2022 10:00:00 AM 11.1 51.98 7.76 22.61 -5
4/23/2022 10:15:00 AM 10.84 51.512 7.76 22.88 -5
4/23/2022 10:30:00 AM 10.97 51.746 7.76 23.34 -5
4/23/2022 10:45:00 AM 10.84 51.512 7.76 25.32 -5
4/23/2022 11:00:00 AM 10.97 51.746 7.76 24.76 -5
4/23/2022 11:15:00 AM 10.84 51.512 7.76 25.13 -5
4/23/2022 11:30:00 AM 10.97 51.746 7.76 24.86 -5
4/23/2022 11:45:00 AM 10.84 51.512 7.77 24.5 -5
4/23/2022 12:00:00 PM 10.97 51.746 7.76 24.61 -5
4/23/2022 12:15:00 PM 10.84 51.512 7.76 24.52 -5
4/23/2022 12:30:00 PM 10.97 51.746 7.77 25.02 -5
4/23/2022 12:45:00 PM 10.84 51.512 7.76 24.57 -5
4/23/2022 1:00:00 PM 10.97 51.746 7.76 24.98 -5
4/23/2022 1:15:00 PM 10.97 51.746 7.76 24.82 -5
4/23/2022 1:30:00 PM 10.97 51.746 7.76 25.08 -5
4/23/2022 1:45:00 PM 10.97 51.746 7.76 24.61 -5
4/23/2022 2:00:00 PM 10.84 51.512 7.77 24.93 -5
4/23/2022 2:15:00 PM 10.97 51.746 7.77 25.07 -5
4/23/2022 2:30:00 PM 10.84 51.512 7.77 24.57 -5
4/23/2022 2:45:00 PM 11.1 51.98 7.77 24.51 -5
4/23/2022 3:00:00 PM 10.97 51.746 7.78 24.88 -5
4/23/2022 3:15:00 PM 11.21 52.178 7.77 24.25 -5
4/23/2022 3:30:00 PM 11.1 51.98 7.78 24.74 -5
4/23/2022 3:45:00 PM 11.22 52.196 7.78 24.66 -5
4/23/2022 4:00:00 PM 11.22 52.196 7.78 25.36 -5
4/23/2022 4:15:00 PM 11.22 52.196 7.79 25.06 -5
4/23/2022 4:30:00 PM 11.36 52.448 7.79 25.01 -5
4/23/2022 4:45:00 PM 11.22 52.196 7.8 25.57 -5
4/23/2022 5:00:00 PM 11.47 52.646 7.8 25.76 -5
4/23/2022 5:15:00 PM 11.36 52.448 7.79 24.96 -5
4/23/2022 5:30:00 PM 11.48 52.664 7.8 25.34 -5
4/23/2022 5:45:00 PM 11.48 52.664 7.8 25.45 -5
4/23/2022 6:00:00 PM 11.36 52.448 7.8 24.78 -5
4/23/2022 6:15:00 PM 11.59 52.862 7.8 25.56 -5
4/23/2022 6:30:00 PM 11.36 52.448 7.8 28.78 -5
4/23/2022 6:45:00 PM 11.59 52.862 7.8 26.28 -5
4/23/2022 7:00:00 PM 11.48 52.664 7.81 26.98 -5
4/23/2022 7:15:00 PM 11.59 52.862 7.81 25.93 -5
4/23/2022 7:30:00 PM 11.48 52.664 7.81 26.36 -5
4/23/2022 7:45:00 PM 11.48 52.664 7.81 26.07 -5
4/23/2022 8:00:00 PM 11.59 52.862 7.81 25.87 -5
4/23/2022 8:15:00 PM 11.48 52.664 7.81 25.94 -5
4/23/2022 8:30:00 PM 11.59 52.862 7.81 25.67 -5
4/23/2022 8:45:00 PM 11.48 52.664 7.81 25.96 -5
4/23/2022 9:00:00 PM 11.59 52.862 7.81 26.29 -5
4/23/2022 9:15:00 PM 11.48 52.664 7.82 26.67 -5
4/23/2022 9:30:00 PM 11.59 52.862 7.82 26.23 -5
4/23/2022 9:45:00 PM 11.47 52.646 7.82 25.61 -5
4/23/2022 10:00:00 PM 11.59 52.862 7.82 26.13 -5
4/23/2022 10:15:00 PM 11.59 52.862 7.81 28.04 -5
4/23/2022 10:30:00 PM 11.59 52.862 7.82 26.95 -5
4/23/2022 10:45:00 PM 11.59 52.862 7.82 26.74 -5
4/23/2022 11:00:00 PM 11.59 52.862 7.82 26.06 -5
4/23/2022 11:15:00 PM 11.59 52.862 7.82 26.02 -5
4/23/2022 11:30:00 PM 11.59 52.862 7.82 25.72 -5
4/23/2022 11:45:00 PM 11.59 52.862 7.82 25.37 -5
4/24/2022 12:00:00 AM 11.59 52.862 7.82 25.5 -5
4/24/2022 12:15:00 AM 11.59 52.862 7.82 25.53 -5
4/24/2022 12:30:00 AM 11.59 52.862 7.82 25.32 -5
4/24/2022 12:45:00 AM 11.59 52.862 7.82 24.75 -5
4/24/2022 1:00:00 AM 11.47 52.646 7.82 24.81 -5
4/24/2022 1:15:00 AM 11.59 52.862 7.82 25.27 -5
4/24/2022 1:30:00 AM 11.48 52.664 7.82 25.25 -5
4/24/2022 1:45:00 AM 11.48 52.664 7.82 25.27 -5
4/24/2022 2:00:00 AM 11.36 52.448 7.81 25.67 -5
4/24/2022 2:15:00 AM 11.48 52.664 7.81 26.08 -5
4/24/2022 2:30:00 AM 11.36 52.448 7.81 25.28 -5
4/24/2022 2:45:00 AM 11.48 52.664 7.81 26.12 -5
4/24/2022 3:00:00 AM 11.3 52.34 7.81 25.19 -5
4/24/2022 3:15:00 AM 11.48 52.664 7.8 25.37 -5
4/24/2022 3:30:00 AM 11.22 52.196 7.8 25.67 -5
4/24/2022 3:45:00 AM 11.36 52.448 7.8 25.7 -5
4/24/2022 4:00:00 AM 11.1 51.98 7.79 25.84 -5
4/24/2022 4:15:00 AM 11.36 52.448 7.79 25.7 -5
4/24/2022 4:30:00 AM 11.1 51.98 7.79 25.62 -5
4/24/2022 4:45:00 AM 11.21 52.178 7.79 25.88 -5
4/24/2022 5:00:00 AM 11.1 51.98 7.79 25.73 -5
4/24/2022 5:15:00 AM 11.21 52.178 7.79 25.57 -5
4/24/2022 5:30:00 AM 10.97 51.746 7.78 25.55 -5
4/24/2022 5:45:00 AM 11.21 52.178 7.78 25.66 -5
4/24/2022 6:00:00 AM 10.97 51.746 7.78 25.79 -5
4/24/2022 6:15:00 AM 11.1 51.98 7.78 25.4 -5
4/24/2022 6:30:00 AM 10.97 51.746 7.77 24.38 -5
4/24/2022 6:45:00 AM 11.1 51.98 7.77 25.61 -5
4/24/2022 7:00:00 AM 10.88 51.584 7.77 25.5 -5
4/24/2022 7:15:00 AM 11.1 51.98 7.77 25.97 -5
4/24/2022 7:30:00 AM 10.84 51.512 7.77 26.02 -5
4/24/2022 7:45:00 AM 10.97 51.746 7.77 26.11 -5
4/24/2022 8:00:00 AM 10.84 51.512 7.77 25.45 -5
4/24/2022 8:15:00 AM 10.97 51.746 7.77 26.21 -5
4/24/2022 8:30:00 AM 10.84 51.512 7.77 26.87 -5
4/24/2022 8:45:00 AM 10.97 51.746 7.77 26.48 -5
4/24/2022 9:00:00 AM 10.84 51.512 7.77 26.43 -5
4/24/2022 9:15:00 AM 11.1 51.98 7.78 26.39 -5
4/24/2022 9:30:00 AM 10.84 51.512 7.78 29.03 -5
4/24/2022 9:45:00 AM 11.1 51.98 7.78 25.55 -5
4/24/2022 10:00:00 AM 10.97 51.746 7.78 25.45 -5
4/24/2022 10:15:00 AM 11.21 52.178 7.78 26.51 -5
4/24/2022 10:30:00 AM 11.1 51.98 7.78 25.48 -5
4/24/2022 10:45:00 AM 11.1 51.98 7.77 25.3 -5
4/24/2022 11:00:00 AM 11.21 52.178 7.78 23.98 -5
4/24/2022 11:15:00 AM 11.1 51.98 7.76 24.44 -5
4/24/2022 11:30:00 AM 11.36 52.448 7.75 24.36 -5
4/24/2022 11:45:00 AM 11.22 52.196 7.73 24.71 -5
4/24/2022 12:00:00 PM 11.48 52.664 7.7 25.52 -5
4/24/2022 12:15:00 PM 11.47 52.646 7.67 25.54 -5
4/24/2022 12:30:00 PM 11.48 52.664 7.64 25.54 -5
4/24/2022 12:45:00 PM 11.59 52.862 7.62 25.23 -5
4/24/2022 1:00:00 PM 11.59 52.862 7.6 25.51 -5
4/24/2022 1:15:00 PM 11.74 53.132 7.59 25.45 -5
4/24/2022 1:30:00 PM 11.59 52.862 7.57 24.95 -5
4/24/2022 1:45:00 PM 11.97 53.546 7.57 25.04 -5
4/24/2022 2:00:00 PM 11.85 53.33 7.56 24.39 -5
4/24/2022 2:15:00 PM 11.97 53.546 7.55 24.7 -5
4/24/2022 2:30:00 PM 11.97 53.546 7.54 24.7 -5
4/24/2022 2:45:00 PM 12.11 53.798 7.54 24.78 -5
4/24/2022 3:00:00 PM 12.11 53.798 7.53 24.91 -5
4/24/2022 3:15:00 PM 12.11 53.798 7.53 24.2 -5
4/24/2022 3:30:00 PM 12.22 53.996 7.52 24.37 -5
4/24/2022 3:45:00 PM 12.22 53.996 7.52 24.72 -5
4/24/2022 4:00:00 PM 12.35 54.23 7.49 24.56 -5
4/24/2022 4:15:00 PM 12.49 54.482 7.5 24.64 -5
4/24/2022 4:30:00 PM 12.49 54.482 7.48 24.27 -5
4/24/2022 4:45:00 PM 12.61 54.698 7.47 24.58 -5
4/24/2022 5:00:00 PM 12.61 54.698 7.46 24.4 -5
4/24/2022 5:15:00 PM 12.72 54.896 7.46 24.48 -5
4/24/2022 5:30:00 PM 12.73 54.914 7.45 24.27 -5
4/24/2022 5:45:00 PM 12.73 54.914 7.45 24.01 -5
4/24/2022 6:00:00 PM 12.86 55.148 7.44 24.08 -5
4/24/2022 6:15:00 PM 12.73 54.914 7.44 24.47 -5
4/24/2022 6:30:00 PM 12.86 55.148 7.43 24.16 -5
4/24/2022 6:45:00 PM 12.86 55.148 7.43 24.39 -5
4/24/2022 7:00:00 PM 12.73 54.914 7.42 24.13 -5
4/24/2022 7:15:00 PM 12.99 55.382 7.42 24.47 -5
4/24/2022 7:30:00 PM 12.86 55.148 7.42 24.34 -5
4/24/2022 7:45:00 PM 12.86 55.148 7.42 24.43 -5
4/24/2022 8:00:00 PM 13.1 55.58 7.41 24.29 -5
4/24/2022 8:15:00 PM 12.99 55.382 7.41 24.5 -5
4/24/2022 8:30:00 PM 12.99 55.382 7.4 25.47 -5
4/24/2022 8:45:00 PM 13.1 55.58 7.4 25 -5
4/24/2022 9:00:00 PM 12.98 55.364 7.39 26.43 -5
4/24/2022 9:15:00 PM 12.98 55.364 7.39 25.51 -5
4/24/2022 9:30:00 PM 12.99 55.382 7.39 25.34 -5
4/24/2022 9:45:00 PM 13.1 55.58 7.4 23.9 -5
4/24/2022 10:00:00 PM 12.98 55.364 7.38 23.93 -5
4/24/2022 10:15:00 PM 12.98 55.364 7.39 24.02 -5
4/24/2022 10:30:00 PM 13.1 55.58 7.38 24.05 -5
4/24/2022 10:45:00 PM 12.99 55.382 7.38 23.82 -5
4/24/2022 11:00:00 PM 12.99 55.382 7.39 24.13 -5
4/24/2022 11:15:00 PM 12.99 55.382 7.39 24.28 -5
4/24/2022 11:30:00 PM 12.86 55.148 7.38 24.04 -5
4/24/2022 11:45:00 PM 13.1 55.58 7.39 23.96 -5
4/25/2022 12:00:00 AM 12.86 55.148 7.38 24.27 -5
4/25/2022 12:15:00 AM 12.99 55.382 7.38 24.35 -5
4/25/2022 12:30:00 AM 12.86 55.148 7.37 24.79 -5
4/25/2022 12:45:00 AM 12.86 55.148 7.37 24.18 -5
4/25/2022 1:00:00 AM 12.99 55.382 7.37 24.53 -5
4/25/2022 1:15:00 AM 12.73 54.914 7.36 23.73 -5
4/25/2022 1:30:00 AM 12.98 55.364 7.37 23.71 -5
4/25/2022 1:45:00 AM 12.74 54.932 7.36 23.55 -5
4/25/2022 2:00:00 AM 12.86 55.148 7.37 23.39 -5
4/25/2022 2:15:00 AM 12.73 54.914 7.37 23.48 -5
4/25/2022 2:30:00 AM 12.73 54.914 7.37 23.65 -5
4/25/2022 2:45:00 AM 12.86 55.148 7.36 23.36 -5
4/25/2022 3:00:00 AM 12.61 54.698 7.36 23.85 -5
4/25/2022 3:15:00 AM 12.86 55.148 7.37 23.29 -5
4/25/2022 3:30:00 AM 12.61 54.698 7.39 23.37 -5
4/25/2022 3:45:00 AM 12.73 54.914 7.31 23.53 -5
4/25/2022 4:00:00 AM 12.61 54.698 7.31 23.49 -5
4/25/2022 4:15:00 AM 12.73 54.914 7.33 23.48 -5
4/25/2022 4:30:00 AM 12.49 54.482 7.31 23.92 -5
4/25/2022 4:45:00 AM 12.62 54.716 7.33 23.27 -5
4/25/2022 5:00:00 AM 12.48 54.464 7.33 23.59 -5
4/25/2022 5:15:00 AM 12.61 54.698 7.33 24.14 -5
4/25/2022 5:30:00 AM 12.48 54.464 7.31 23.86 -5
4/25/2022 5:45:00 AM 12.61 54.698 7.33 23.85 -5
4/25/2022 6:00:00 AM 12.49 54.482 7.32 24.22 -5
4/25/2022 6:15:00 AM 12.61 54.698 7.33 24.36 -5
4/25/2022 6:30:00 AM 12.49 54.482 7.33 23.6 -5
4/25/2022 6:45:00 AM 12.49 54.482 7.33 23.82 -5
4/25/2022 7:00:00 AM 12.49 54.482 7.33 23.51 -5
4/25/2022 7:15:00 AM 12.49 54.482 7.33 23.7 -5
4/25/2022 7:30:00 AM 12.41 54.338 7.33 22.15 -5
4/25/2022 7:45:00 AM 12.35 54.23 7.76 20.9 -5
4/25/2022 8:00:00 AM 12.35 54.23 7.75 21.67 -5
4/25/2022 8:15:00 AM 12.22 53.996 7.75 21.88 -5
4/25/2022 8:30:00 AM 12.49 54.482 7.75 22.15 -5
4/25/2022 8:45:00 AM 12.22 53.996 7.74 22.03 -5
4/25/2022 9:00:00 AM 12.35 54.23 7.76 22.36 -5
4/25/2022 9:15:00 AM 12.22 53.996 7.75 23.22 -5
4/25/2022 9:30:00 AM 12.35 54.23 7.76 23.46 -5
4/25/2022 9:45:00 AM 12.22 53.996 7.76 23.67 -5
4/25/2022 10:00:00 AM 12.35 54.23 7.77 23.71 -5
4/25/2022 10:15:00 AM 12.22 53.996 7.78 23.53 -5
4/25/2022 10:30:00 AM 12.35 54.23 7.77 23.49 -5
4/25/2022 10:45:00 AM 12.35 54.23 7.78 23.5 -5
4/25/2022 11:00:00 AM 12.22 53.996 7.78 23.41 -5
4/25/2022 11:15:00 AM 12.35 54.23 7.79 23.64 -5
4/25/2022 11:30:00 AM 12.22 53.996 7.79 23.43 -5
4/25/2022 11:45:00 AM 12.49 54.482 7.79 23.41 -5
4/25/2022 12:00:00 PM 12.22 53.996 7.79 23.49 -5
4/25/2022 12:15:00 PM 12.49 54.482 7.8 23.61 -5
4/25/2022 12:30:00 PM 12.35 54.23 7.81 23.6 -5
4/25/2022 12:45:00 PM 12.48 54.464 7.8 22.79 -5
4/25/2022 1:00:00 PM 12.35 54.23 7.81 23.33 -5
4/25/2022 1:15:00 PM 12.49 54.482 7.81 23.25 -5
4/25/2022 1:30:00 PM 12.35 54.23 7.8 23.36 -5
4/25/2022 1:45:00 PM 12.49 54.482 7.82 22.74 -5
4/25/2022 2:00:00 PM 12.35 54.23 7.82 22.99 -5
4/25/2022 2:15:00 PM 12.61 54.698 7.82 23.21 -5
4/25/2022 2:30:00 PM 12.48 54.464 7.82 22.91 -5
4/25/2022 2:45:00 PM 12.61 54.698 7.83 23.29 -5
4/25/2022 3:00:00 PM 12.49 54.482 7.83 23.21 -5
4/25/2022 3:15:00 PM 12.73 54.914 7.84 22.78 -5
4/25/2022 3:30:00 PM 12.61 54.698 7.83 22.75 -5
4/25/2022 3:45:00 PM 12.86 55.148 7.84 22.93 -5
4/25/2022 4:00:00 PM 12.61 54.698 7.84 22.72 -5
4/25/2022 4:15:00 PM 12.86 55.148 7.84 22.89 -5
4/25/2022 4:30:00 PM 12.73 54.914 7.84 23.11 -5
4/25/2022 4:45:00 PM 12.86 55.148 7.84 22.44 -5
4/25/2022 5:00:00 PM 12.73 54.914 7.85 23.18 -5
4/25/2022 5:15:00 PM 12.86 55.148 7.85 22.81 -5
4/25/2022 5:30:00 PM 12.73 54.914 7.86 22.63 -5
4/25/2022 5:45:00 PM 12.99 55.382 7.86 24.01 -5
4/25/2022 6:00:00 PM 12.86 55.148 7.86 24.62 -5
4/25/2022 6:15:00 PM 12.99 55.382 7.87 24.12 -5
4/25/2022 6:30:00 PM 12.73 54.914 7.88 24.51 -5
4/25/2022 6:45:00 PM 12.98 55.364 7.88 23.77 -5
4/25/2022 7:00:00 PM 12.73 54.914 7.88 24.24 -5
4/25/2022 7:15:00 PM 12.98 55.364 7.88 23.54 -5
4/25/2022 7:30:00 PM 12.72 54.896 7.88 22.36 -5
4/25/2022 7:45:00 PM 12.99 55.382 7.87 21.81 -5
4/25/2022 8:00:00 PM 12.73 54.914 7.87 22.56 -5
4/25/2022 8:15:00 PM 12.99 55.382 7.87 24.39 -5
4/25/2022 8:30:00 PM 12.86 55.148 7.88 24.23 -5
4/25/2022 8:45:00 PM 12.98 55.364 7.88 23.89 -5
4/25/2022 9:00:00 PM 12.86 55.148 7.86 27.35 -5
4/25/2022 9:15:00 PM 12.99 55.382 7.88 26.01 -5
4/25/2022 9:30:00 PM 12.86 55.148 7.88 25.57 -5
4/25/2022 9:45:00 PM 13.1 55.58 7.88 24.95 -5
4/25/2022 10:00:00 PM 12.86 55.148 7.89 24.46 -5
4/25/2022 10:15:00 PM 13.1 55.58 7.88 24.33 -5
4/25/2022 10:30:00 PM 12.86 55.148 7.88 24.05 -5
4/25/2022 10:45:00 PM 13.1 55.58 7.88 24.15 -5
4/25/2022 11:00:00 PM 12.86 55.148 7.88 24.17 -5
4/25/2022 11:15:00 PM 13.1 55.58 7.89 25.03 -5
4/25/2022 11:30:00 PM 12.86 55.148 7.88 24.76 -5
4/25/2022 11:45:00 PM 13.1 55.58 7.88 24.51 -5
4/26/2022 12:00:00 AM 12.86 55.148 7.88 24.87 -5
4/26/2022 12:15:00 AM 12.99 55.382 7.88 25 -5
4/26/2022 12:30:00 AM 12.86 55.148 7.88 25.03 -5
4/26/2022 12:45:00 AM 12.98 55.364 7.88 24.91 -5
4/26/2022 1:00:00 AM 12.86 55.148 7.88 24.95 -5
4/26/2022 1:15:00 AM 12.98 55.364 7.88 25.04 -5
4/26/2022 1:30:00 AM 12.86 55.148 7.88 24.66 -5
4/26/2022 1:45:00 AM 12.99 55.382 7.87 24.79 -5
4/26/2022 2:00:00 AM 12.86 55.148 7.87 25.23 -5
4/26/2022 2:15:00 AM 12.98 55.364 7.87 25.67 -5
4/26/2022 2:30:00 AM 12.99 55.382 7.87 25.4 -5
4/26/2022 2:45:00 AM 12.99 55.382 7.87 24.53 -5
4/26/2022 3:00:00 AM 12.86 55.148 7.87 24.29 -5
4/26/2022 3:15:00 AM 12.99 55.382 7.86 24.33 -5
4/26/2022 3:30:00 AM 12.86 55.148 7.86 24.42 -5
4/26/2022 3:45:00 AM 12.86 55.148 7.86 24.3 -5
4/26/2022 4:00:00 AM 12.86 55.148 7.86 25.03 -5
4/26/2022 4:15:00 AM 12.86 55.148 7.85 24.71 -5
4/26/2022 4:30:00 AM 12.98 55.364 7.85 24.84 -5
4/26/2022 4:45:00 AM 12.86 55.148 7.85 24.06 -5
4/26/2022 5:00:00 AM 12.99 55.382 7.85 23.76 -5
4/26/2022 5:15:00 AM 12.73 54.914 7.85 24.07 -5
4/26/2022 5:30:00 AM 12.99 55.382 7.84 23.89 -5
4/26/2022 5:45:00 AM 12.73 54.914 7.84 23.7 -5
4/26/2022 6:00:00 AM 12.99 55.382 7.84 23.44 -5
4/26/2022 6:15:00 AM 12.73 54.914 7.83 23.2 -5
4/26/2022 6:30:00 AM 12.89 55.202 7.83 22.92 -5
4/26/2022 6:45:00 AM 12.72 54.896 7.83 23.93 -5
4/26/2022 7:00:00 AM 12.86 55.148 7.83 23.87 -5
4/26/2022 7:15:00 AM 12.73 54.914 7.83 24.6 -5
4/26/2022 7:30:00 AM 12.98 55.364 7.82 24.42 -5
4/26/2022 7:45:00 AM 12.73 54.914 7.82 23.77 -5
4/26/2022 8:00:00 AM 12.99 55.382 7.82 23.68 -5
4/26/2022 8:15:00 AM 12.72 54.896 7.81 23.43 -5
4/26/2022 8:30:00 AM 12.98 55.364 7.82 23.71 -5
4/26/2022 8:45:00 AM 12.86 55.148 7.82 23.61 -5
4/26/2022 9:00:00 AM 12.98 55.364 7.82 23.72 -5
4/26/2022 9:15:00 AM 12.86 55.148 7.82 23.09 -5
4/26/2022 9:30:00 AM 12.98 55.364 7.82 23.57 -5
4/26/2022 9:45:00 AM 12.86 55.148 7.81 23.5 -5
4/26/2022 10:00:00 AM 12.99 55.382 7.81 23.46 -5
4/26/2022 10:15:00 AM 12.86 55.148 7.82 23.45 -5
4/26/2022 10:30:00 AM 13.1 55.58 7.82 23.57 -5
4/26/2022 10:45:00 AM 12.98 55.364 7.82 23.28 -5
4/26/2022 11:00:00 AM 13.1 55.58 7.82 24.07 -5
4/26/2022 11:15:00 AM 12.99 55.382 7.82 23.72 -5
4/26/2022 11:30:00 AM 12.99 55.382 7.81 23.23 -5
4/26/2022 11:45:00 AM 12.98 55.364 7.82 22.96 -5
4/26/2022 12:00:00 PM 12.98 55.364 7.82 23.08 -5
4/26/2022 12:15:00 PM 12.98 55.364 7.8 22.65 -5
4/26/2022 12:30:00 PM 12.98 55.364 7.81 23.07 -5
4/26/2022 12:45:00 PM 12.99 55.382 7.81 22.2 -5
4/26/2022 1:00:00 PM 12.99 55.382 7.81 22.73 -5
4/26/2022 1:15:00 PM 13.1 55.58 7.81 22.68 -5
4/26/2022 1:30:00 PM 12.99 55.382 7.82 22.37 -5
4/26/2022 1:45:00 PM 13.1 55.58 7.82 22.93 -5
4/26/2022 2:00:00 PM 12.99 55.382 7.82 22.36 -5
4/26/2022 2:15:00 PM 13.1 55.58 7.81 21.89 -5
4/26/2022 2:30:00 PM 12.98 55.364 7.82 21.85 -5
4/26/2022 2:45:00 PM 13.24 55.832 7.81 21.73 -5
4/26/2022 3:00:00 PM 12.99 55.382 7.81 21.34 -5
4/26/2022 3:15:00 PM 13.24 55.832 7.81 22.04 -5
4/26/2022 3:30:00 PM 12.99 55.382 7.82 21.65 -5
4/26/2022 3:45:00 PM 13.24 55.832 7.81 22.37 -5
4/26/2022 4:00:00 PM 13.1 55.58 7.82 22.2 -5
4/26/2022 4:15:00 PM 13.24 55.832 7.82 22.42 -5
4/26/2022 4:30:00 PM 13.1 55.58 7.82 21.98 -5
4/26/2022 4:45:00 PM 13.24 55.832 7.82 21.83 -5
4/26/2022 5:00:00 PM 13.1 55.58 7.82 21.62 -5
4/26/2022 5:15:00 PM 13.24 55.832 7.82 21.93 -5
4/26/2022 5:30:00 PM 13.1 55.58 7.81 21.82 -5
4/26/2022 5:45:00 PM 13.24 55.832 7.83 24.59 -5
4/26/2022 6:00:00 PM 13.1 55.58 7.83 23.48 -5
4/26/2022 6:15:00 PM 13.24 55.832 7.82 28.52 -5
4/26/2022 6:30:00 PM 13.1 55.58 7.84 24.62 -5
4/26/2022 6:45:00 PM 13.24 55.832 7.84 23.69 -5
4/26/2022 7:00:00 PM 13.1 55.58 7.84 23.32 -5
4/26/2022 7:15:00 PM 13.24 55.832 7.83 21.05 -5
4/26/2022 7:30:00 PM 13.24 55.832 7.83 22.43 -5
4/26/2022 7:45:00 PM 13.1 55.58 7.83 21.97 -5
4/26/2022 8:00:00 PM 13.24 55.832 7.83 21.57 -5
4/26/2022 8:15:00 PM 12.99 55.382 7.83 21.91 -5
4/26/2022 8:30:00 PM 13.24 55.832 7.83 23.13 -5
4/26/2022 8:45:00 PM 13.1 55.58 7.83 22 -5
4/26/2022 9:00:00 PM 13.24 55.832 7.83 22.14 -5
4/26/2022 9:15:00 PM 13.1 55.58 7.83 22 -5
4/26/2022 9:30:00 PM 13.1 55.58 7.83 21.64 -5
4/26/2022 9:45:00 PM 13.24 55.832 7.83 21.54 -5
4/26/2022 10:00:00 PM 13.1 55.58 7.83 22.31 -5
4/26/2022 10:15:00 PM 13.24 55.832 7.83 22.56 -5
4/26/2022 10:30:00 PM 12.99 55.382 7.83 22.08 -5
4/26/2022 10:45:00 PM 13.24 55.832 7.83 21.96 -5
4/26/2022 11:00:00 PM 12.98 55.364 7.83 21.87 -5
4/26/2022 11:15:00 PM 13.1 55.58 7.83 22.31 -5
4/26/2022 11:30:00 PM 12.98 55.364 7.83 22.21 -5
4/26/2022 11:45:00 PM 13.1 55.58 7.82 22.27 -5
4/27/2022 12:00:00 AM 13.1 55.58 7.83 22.39 -5
4/27/2022 12:15:00 AM 12.86 55.148 7.82 22.63 -5
4/27/2022 12:30:00 AM 13.1 55.58 7.82 22.2 -5
4/27/2022 12:45:00 AM 12.86 55.148 7.82 22.12 -5
4/27/2022 1:00:00 AM 12.99 55.382 7.82 22.05 -5
4/27/2022 1:15:00 AM 12.99 55.382 7.81 22.42 -5
4/27/2022 1:30:00 AM 12.73 54.914 7.81 22.34 -5
4/27/2022 1:45:00 AM 12.86 55.148 7.81 22.33 -5
4/27/2022 2:00:00 AM 12.99 55.382 7.82 22.07 -5
4/27/2022 2:15:00 AM 12.72 54.896 7.81 22.07 -5
4/27/2022 2:30:00 AM 12.86 55.148 7.81 22.09 -5
4/27/2022 2:45:00 AM 12.86 55.148 7.81 22.21 -5
4/27/2022 3:00:00 AM 12.61 54.698 7.81 22.28 -5
4/27/2022 3:15:00 AM 12.86 55.148 7.8 22.72 -5
4/27/2022 3:30:00 AM 12.61 54.698 7.81 22.49 -5
4/27/2022 3:45:00 AM 12.72 54.896 7.8 22.36 -5
4/27/2022 4:00:00 AM 12.72 54.896 7.81 22.1 -5
4/27/2022 4:15:00 AM 12.73 54.914 7.8 22.32 -5
4/27/2022 4:30:00 AM 12.73 54.914 7.8 22.15 -5
4/27/2022 4:45:00 AM 12.48 54.464 7.81 22.17 -5
4/27/2022 5:00:00 AM 12.61 54.698 7.81 21.79 -5
4/27/2022 5:15:00 AM 12.61 54.698 7.8 22.27 -5
4/27/2022 5:30:00 AM 12.61 54.698 7.8 21.94 -5
4/27/2022 5:45:00 AM 12.61 54.698 7.8 21.98 -5
4/27/2022 6:00:00 AM 12.49 54.482 7.8 22.32 -5
4/27/2022 6:15:00 AM 12.49 54.482 7.79 22 -5
4/27/2022 6:30:00 AM 12.49 54.482 7.79 22.28 -5
4/27/2022 6:45:00 AM 12.35 54.23 7.79 21.63 -5
4/27/2022 7:00:00 AM 12.35 54.23 7.78 22.3 -5
4/27/2022 7:15:00 AM 12.22 53.996 7.78 23.04 -5
4/27/2022 7:30:00 AM 12.22 53.996 7.79 22.23 -5
4/27/2022 7:45:00 AM 12.22 53.996 7.8 22.57 -5
4/27/2022 8:00:00 AM 12.22 53.996 7.8 21.55 -5
4/27/2022 8:15:00 AM 12.22 53.996 7.79 21.77 -5
4/27/2022 8:30:00 AM 12.11 53.798 7.79 21.82 -5
4/27/2022 8:45:00 AM 12.11 53.798 7.79 21.76 -5
4/27/2022 9:00:00 AM 12.11 53.798 7.8 21.89 -5
4/27/2022 9:15:00 AM 12.11 53.798 7.8 21.67 -5
4/27/2022 9:30:00 AM 12.11 53.798 7.8 21.77 -5
4/27/2022 9:45:00 AM 12.11 53.798 7.8 21.5 -5
4/27/2022 10:00:00 AM 12.11 53.798 7.81 21.85 -5
4/27/2022 10:15:00 AM 12.11 53.798 7.81 21.54 -5
4/27/2022 10:30:00 AM 12.11 53.798 7.82 21.91 -5
4/27/2022 10:45:00 AM 12.11 53.798 7.82 21.88 -5
4/27/2022 11:00:00 AM 12.22 53.996 7.82 22.41 -5
4/27/2022 11:15:00 AM 12.22 53.996 7.83 23 -5
4/27/2022 11:30:00 AM 12.22 53.996 7.83 22.7 -5
4/27/2022 11:45:00 AM 12.22 53.996 7.84 22.43 -5
4/27/2022 12:00:00 PM 12.22 53.996 7.84 22 -5
4/27/2022 12:15:00 PM 12.22 53.996 7.84 21.89 -5
4/27/2022 12:30:00 PM 12.22 53.996 7.84 21.74 -5
4/27/2022 12:45:00 PM 12.22 53.996 7.84 21.6 -5
4/27/2022 1:00:00 PM 12.22 53.996 7.85 21.8 -5
4/27/2022 1:15:00 PM 12.35 54.23 7.85 21.77 -5
4/27/2022 1:30:00 PM 12.49 54.482 7.86 21.63 -5
4/27/2022 1:45:00 PM 12.49 54.482 7.87 21.54 -5
4/27/2022 2:00:00 PM 12.61 54.698 7.86 22.52 -5
4/27/2022 2:15:00 PM 12.61 54.698 7.87 22.19 -5
4/27/2022 2:30:00 PM 12.61 54.698 7.88 22.21 -5
4/27/2022 2:45:00 PM 12.61 54.698 7.88 21.84 -5
4/27/2022 3:00:00 PM 12.48 54.464 7.88 21.68 -5
4/27/2022 3:15:00 PM 12.35 54.23 7.88 21.22 -5
4/27/2022 3:30:00 PM 12.35 54.23 7.87 21.21 -5
4/27/2022 3:45:00 PM 12.22 53.996 7.87 20.64 -5
4/27/2022 4:00:00 PM 12.22 53.996 7.86 20.56 -5
4/27/2022 4:15:00 PM 12.22 53.996 7.87 20.97 -5
4/27/2022 4:30:00 PM 12.22 53.996 7.87 20.42 -5
4/27/2022 4:45:00 PM 12.22 53.996 7.88 21.19 -5
4/27/2022 5:00:00 PM 12.22 53.996 7.88 21.12 -5
4/27/2022 5:15:00 PM 12.22 53.996 7.88 21.54 -5
4/27/2022 5:30:00 PM 12.22 53.996 7.88 22.16 -5
4/27/2022 5:45:00 PM 12.22 53.996 7.88 22 -5
4/27/2022 6:00:00 PM 12.22 53.996 7.87 21.65 -5
4/27/2022 6:15:00 PM 12.22 53.996 7.88 21.35 -5
4/27/2022 6:30:00 PM 12.22 53.996 7.88 22.01 -5
4/27/2022 6:45:00 PM 12.11 53.798 7.88 21.52 -5
4/27/2022 7:00:00 PM 12.11 53.798 7.87 20.92 -5
4/27/2022 7:15:00 PM 12.11 53.798 7.87 22.02 -5
4/27/2022 7:30:00 PM 11.97 53.546 7.88 22.53 -5
4/27/2022 7:45:00 PM 11.97 53.546 7.88 22.14 -5
4/27/2022 8:00:00 PM 11.97 53.546 7.89 22.7 -5
4/27/2022 8:15:00 PM 11.97 53.546 7.89 22.09 -5
4/27/2022 8:30:00 PM 11.97 53.546 7.89 20.87 -5
4/27/2022 8:45:00 PM 11.97 53.546 7.89 20.19 -5
4/27/2022 9:00:00 PM 11.97 53.546 7.89 20.83 -5
4/27/2022 9:15:00 PM 12.11 53.798 7.87 23.74 -5
4/27/2022 9:30:00 PM 12.11 53.798 7.9 22.42 -5
4/27/2022 9:45:00 PM 12.11 53.798 7.9 22.14 -5
4/27/2022 10:00:00 PM 11.97 53.546 7.9 21.73 -5
4/27/2022 10:15:00 PM 11.97 53.546 7.9 21.25 -5
4/27/2022 10:30:00 PM 11.97 53.546 7.9 21.16 -5
4/27/2022 10:45:00 PM 11.85 53.33 7.89 21.26 -5
4/27/2022 11:00:00 PM 11.85 53.33 7.89 21.08 -5
4/27/2022 11:15:00 PM 11.73 53.114 7.88 20.39 -5
4/27/2022 11:30:00 PM 11.59 52.862 7.88 20.77 -5
4/27/2022 11:45:00 PM 11.59 52.862 7.87 20.6 -5
4/28/2022 12:00:00 AM 11.59 52.862 7.87 20.29 -5
4/28/2022 12:15:00 AM 11.59 52.862 7.86 20.18 -5
4/28/2022 12:30:00 AM 11.59 52.862 7.86 19.87 -5
4/28/2022 12:45:00 AM 11.48 52.664 7.86 20.01 -5
4/28/2022 1:00:00 AM 11.48 52.664 7.86 20.18 -5
4/28/2022 1:15:00 AM 11.59 52.862 7.86 20.12 -5
4/28/2022 1:30:00 AM 11.59 52.862 7.86 20.04 -5
4/28/2022 1:45:00 AM 11.59 52.862 7.86 20.3 -5
4/28/2022 2:00:00 AM 11.59 52.862 7.87 20.31 -5
4/28/2022 2:15:00 AM 11.48 52.664 7.87 20.74 -5
4/28/2022 2:30:00 AM 11.48 52.664 7.87 20.45 -5
4/28/2022 2:45:00 AM 11.36 52.448 7.87 20.41 -5
4/28/2022 3:00:00 AM 11.36 52.448 7.86 20.66 -5
4/28/2022 3:15:00 AM 11.36 52.448 7.86 20.68 -5
4/28/2022 3:30:00 AM 11.36 52.448 7.86 20.6 -5
4/28/2022 3:45:00 AM 11.22 52.196 7.85 20.43 -5
4/28/2022 4:00:00 AM 11.22 52.196 7.85 20.25 -5
4/28/2022 4:15:00 AM 11.22 52.196 7.85 20.18 -5
4/28/2022 4:30:00 AM 11.22 52.196 7.84 20.39 -5
4/28/2022 4:45:00 AM 11.1 51.98 7.84 20.36 -5
4/28/2022 5:00:00 AM 11.1 51.98 7.84 19.98 -5
4/28/2022 5:15:00 AM 11.1 51.98 7.83 19.8 -5
4/28/2022 5:30:00 AM 11.1 51.98 7.83 19.65 -5
4/28/2022 5:45:00 AM 10.97 51.746 7.83 19.73 -5
4/28/2022 6:00:00 AM 10.97 51.746 7.82 19.54 -5
4/28/2022 6:15:00 AM 10.84 51.512 7.82 19.62 -5
4/28/2022 6:30:00 AM 10.84 51.512 7.82 19.46 -5
4/28/2022 6:45:00 AM 10.84 51.512 7.84 18.58 -5
4/28/2022 7:00:00 AM 10.84 51.512 7.83 18.75 -5
4/28/2022 7:15:00 AM 10.72 51.296 7.83 18.56 -5
4/28/2022 7:30:00 AM 10.72 51.296 7.83 18.78 -5
4/28/2022 7:45:00 AM 10.72 51.296 7.84 18.65 -5
4/28/2022 8:00:00 AM 10.72 51.296 7.83 18.73 -5
4/28/2022 8:15:00 AM 10.72 51.296 7.83 18.35 -5
4/28/2022 8:30:00 AM 10.72 51.296 7.83 18.79 -5
4/28/2022 8:45:00 AM 10.72 51.296 7.83 18.69 -5
4/28/2022 9:00:00 AM 10.72 51.296 7.83 18.72 -5
4/28/2022 9:15:00 AM 10.72 51.296 7.83 18.75 -5
4/28/2022 9:30:00 AM 10.72 51.296 7.84 18.64 -5
4/28/2022 9:45:00 AM 10.72 51.296 7.84 18.86 -5
4/28/2022 10:00:00 AM 10.72 51.296 7.85 18.92 -5
4/28/2022 10:15:00 AM 10.84 51.512 7.85 19.08 -5
4/28/2022 10:30:00 AM 10.84 51.512 7.85 18.95 -5
4/28/2022 10:45:00 AM 10.97 51.746 7.87 18.76 -5
4/28/2022 11:00:00 AM 10.97 51.746 7.87 19.02 -5
4/28/2022 11:15:00 AM 10.97 51.746 7.88 18.92 -5
4/28/2022 11:30:00 AM 11.1 51.98 7.88 18.9 -5
4/28/2022 11:45:00 AM 11.1 51.98 7.88 18.86 -5
4/28/2022 12:00:00 PM 11.1 51.98 7.89 18.74 -5
4/28/2022 12:15:00 PM 11.22 52.196 7.89 18.72 -5
4/28/2022 12:30:00 PM 11.36 52.448 7.9 18.38 -5
4/28/2022 12:45:00 PM 11.36 52.448 7.91 18.57 -5
4/28/2022 1:00:00 PM 11.48 52.664 7.91 18.61 -5
4/28/2022 1:15:00 PM 11.48 52.664 7.92 18.52 -5
4/28/2022 1:30:00 PM 11.59 52.862 7.92 18.39 -5
4/28/2022 1:45:00 PM 11.59 52.862 7.93 18.45 -5
4/28/2022 2:00:00 PM 11.74 53.132 7.93 18.75 -5
4/28/2022 2:15:00 PM 11.85 53.33 7.93 18.67 -5
4/28/2022 2:30:00 PM 11.85 53.33 7.94 18.46 -5
4/28/2022 2:45:00 PM 11.97 53.546 7.95 18.45 -5
4/28/2022 3:00:00 PM 11.97 53.546 7.96 18.47 -5
4/28/2022 3:15:00 PM 12.11 53.798 7.97 18.49 -5
4/28/2022 3:30:00 PM 12.11 53.798 7.97 18.47 -5
4/28/2022 3:45:00 PM 12.22 53.996 7.97 18.52 -5
4/28/2022 4:00:00 PM 12.22 53.996 7.97 18.42 -5
4/28/2022 4:15:00 PM 12.22 53.996 7.99 18.04 -5
4/28/2022 4:30:00 PM 12.35 54.23 7.97 17.95 -5
4/28/2022 4:45:00 PM 12.35 54.23 7.98 17.89 -5
4/28/2022 5:00:00 PM 12.22 53.996 7.98 17.85 -5
4/28/2022 5:15:00 PM 12.35 54.23 7.98 17.48 -5
4/28/2022 5:30:00 PM 12.49 54.482 7.97 17.86 -5
4/28/2022 5:45:00 PM 12.49 54.482 7.99 17.73 -5
4/28/2022 6:00:00 PM 12.35 54.23 7.99 17.86 -5
4/28/2022 6:15:00 PM 12.49 54.482 7.99 19.05 -5
4/28/2022 6:30:00 PM 12.22 53.996 8.01 18.97 -5
4/28/2022 6:45:00 PM 12.48 54.464 8.01 18.53 -5
4/28/2022 7:00:00 PM 12.49 54.482 8.01 18.61 -5
4/28/2022 7:15:00 PM 12.49 54.482 8.02 18.43 -5
4/28/2022 7:30:00 PM 12.49 54.482 8.02 18.38 -5
4/28/2022 7:45:00 PM 12.49 54.482 8.02 18.46 -5
4/28/2022 8:00:00 PM 12.61 54.698 8.02 18.48 -5
4/28/2022 8:15:00 PM 12.49 54.482 8.02 18.42 -5
4/28/2022 8:30:00 PM 12.49 54.482 8.03 17.29 -5
4/28/2022 8:45:00 PM 12.35 54.23 8.03 17.95 -5
4/28/2022 9:00:00 PM 12.49 54.482 8.02 17.81 -5
4/28/2022 9:15:00 PM 12.35 54.23 8.01 19.43 -5
4/28/2022 9:30:00 PM 12.35 54.23 8.01 19.99 -5
4/28/2022 9:45:00 PM 12.48 54.464 8.02 19.15 -5
4/28/2022 10:00:00 PM 12.35 54.23 8.01 19.31 -5
4/28/2022 10:15:00 PM 12.48 54.464 8.02 19.75 -5
4/28/2022 10:30:00 PM 12.35 54.23 8.02 18.49 -5
4/28/2022 10:45:00 PM 12.49 54.482 8.01 18.42 -5
4/28/2022 11:00:00 PM 12.22 53.996 8.01 18.54 -5
4/28/2022 11:15:00 PM 12.49 54.482 8.01 18.3 -5
4/28/2022 11:30:00 PM 12.22 53.996 8.01 18.34 -5
4/28/2022 11:45:00 PM 12.49 54.482 8.01 18.36 -5
4/29/2022 12:00:00 AM 12.22 53.996 8 18.52 -5
4/29/2022 12:15:00 AM 12.35 54.23 8 18.32 -5
4/29/2022 12:30:00 AM 12.22 53.996 8.02 17.89 -5
4/29/2022 12:45:00 AM 12.22 53.996 8.01 17.76 -5
4/29/2022 1:00:00 AM 12.22 53.996 8 17.77 -5
4/29/2022 1:15:00 AM 12.22 53.996 7.99 17.8 -5
4/29/2022 1:30:00 AM 12.22 53.996 7.99 17.67 -5
4/29/2022 1:45:00 AM 12.22 53.996 7.99 17.6 -5
4/29/2022 2:00:00 AM 12.22 53.996 7.97 17.76 -5
4/29/2022 2:15:00 AM 12.11 53.798 7.98 17.72 -5
4/29/2022 2:30:00 AM 12.22 53.996 7.97 17.77 -5
4/29/2022 2:45:00 AM 11.97 53.546 7.97 17.44 -5
4/29/2022 3:00:00 AM 12.11 53.798 7.96 17.49 -5
4/29/2022 3:15:00 AM 11.85 53.33 7.96 17.34 -5
4/29/2022 3:30:00 AM 12.11 53.798 7.96 17.53 -5
4/29/2022 3:45:00 AM 11.85 53.33 7.96 17.28 -5
4/29/2022 4:00:00 AM 11.97 53.546 7.94 17.7 -5
4/29/2022 4:15:00 AM 11.97 53.546 7.95 17.57 -5
4/29/2022 4:30:00 AM 11.74 53.132 7.94 17.38 -5
4/29/2022 4:45:00 AM 11.85 53.33 7.94 17.43 -5
4/29/2022 5:00:00 AM 11.59 52.862 7.93 17.26 -5
4/29/2022 5:15:00 AM 11.74 53.132 7.93 17.11 -5
4/29/2022 5:30:00 AM 11.74 53.132 7.93 17.25 -5
4/29/2022 5:45:00 AM 11.59 52.862 7.92 17.06 -5
4/29/2022 6:00:00 AM 11.74 53.132 7.91 17.05 -5
4/29/2022 6:15:00 AM 11.59 52.862 7.91 17.01 -5
4/29/2022 6:30:00 AM 11.59 52.862 7.91 17.05 -5
4/29/2022 6:45:00 AM 11.59 52.862 7.91 17.13 -5
4/29/2022 7:00:00 AM 11.36 52.448 7.9 16.95 -5
4/29/2022 7:15:00 AM 11.48 52.664 7.9 15.23 -5
4/29/2022 7:30:00 AM 11.48 52.664 7.89 15.33 -5
4/29/2022 7:45:00 AM 11.22 52.196 7.89 14.86 -5
4/29/2022 8:00:00 AM 11.48 52.664 7.88 15.44 -5
4/29/2022 8:15:00 AM 11.48 52.664 7.9 15.34 -5
4/29/2022 8:30:00 AM 11.21 52.178 7.9 15.28 -5
4/29/2022 8:45:00 AM 11.36 52.448 7.9 15.19 -5
4/29/2022 9:00:00 AM 11.48 52.664 7.89 15.61 -5
4/29/2022 9:15:00 AM 11.48 52.664 7.9 15.46 -5
4/29/2022 9:30:00 AM 11.59 52.862 7.92 15.35 -5
4/29/2022 9:45:00 AM 11.36 52.448 7.92 15.78 -5
4/29/2022 10:00:00 AM 11.59 52.862 7.9 16.01 -5
4/29/2022 10:15:00 AM 11.59 52.862 7.92 15.44 -5
4/29/2022 10:30:00 AM 11.73 53.114 7.92 15.32 -5
4/29/2022 10:45:00 AM 11.59 52.862 7.93 15.7 -5
4/29/2022 11:00:00 AM 11.74 53.132 7.92 15.47 -5
4/29/2022 11:15:00 AM 11.85 53.33 7.93 15.72 -5
4/29/2022 11:30:00 AM 11.85 53.33 7.94 15.36 -5
4/29/2022 11:45:00 AM 11.73 53.114 7.94 15.53 -5
4/29/2022 12:00:00 PM 11.97 53.546 7.94 15.38 -5
4/29/2022 12:15:00 PM 12.11 53.798 7.96 15.53 -5
4/29/2022 12:30:00 PM 12.11 53.798 7.96 15.51 -5
4/29/2022 12:45:00 PM 11.97 53.546 7.97 15.63 -5
4/29/2022 1:00:00 PM 12.22 53.996 7.97 15.35 -5
4/29/2022 1:15:00 PM 12.22 53.996 7.98 15.28 -5
4/29/2022 1:30:00 PM 12.35 54.23 7.98 14.98 -5
4/29/2022 1:45:00 PM 12.22 53.996 7.99 15.19 -5
4/29/2022 2:00:00 PM 12.49 54.482 8 15.24 -5
4/29/2022 2:15:00 PM 12.61 54.698 8 15.05 -5
4/29/2022 2:30:00 PM 12.49 54.482 8.01 15.17 -5
4/29/2022 2:45:00 PM 12.72 54.896 8.02 15.23 -5
4/29/2022 3:00:00 PM 12.86 55.148 8.02 15.67 -5
4/29/2022 3:15:00 PM 12.86 55.148 8.02 15.45 -5
4/29/2022 3:30:00 PM 12.99 55.382 8.03 15.43 -5
4/29/2022 3:45:00 PM 12.73 54.914 8.03 15.57 -5
4/29/2022 4:00:00 PM 12.99 55.382 8.04 15.5 -5
4/29/2022 4:15:00 PM 13.1 55.58 8.05 15.38 -5
4/29/2022 4:30:00 PM 12.86 55.148 8.04 15.45 -5
4/29/2022 4:45:00 PM 13.1 55.58 8.06 15.83 -5
4/29/2022 5:00:00 PM 12.99 55.382 8.06 15.81 -5
4/29/2022 5:15:00 PM 13.24 55.832 8.02 17.26 -5
4/29/2022 5:30:00 PM 13.1 55.58 8.04 18.27 -5
4/29/2022 5:45:00 PM 13.36 56.048 8.08 16.48 -5
4/29/2022 6:00:00 PM 13.36 56.048 8.08 16.01 -5
4/29/2022 6:15:00 PM 13.36 56.048 8.1 15.55 -5
4/29/2022 6:30:00 PM 13.36 56.048 8.1 15.57 -5
4/29/2022 6:45:00 PM 13.47 56.246 8.11 15.77 -5
4/29/2022 7:00:00 PM 13.36 56.048 8.11 15.53 -5
4/29/2022 7:15:00 PM 13.47 56.246 8.11 15.43 -5
4/29/2022 7:30:00 PM 13.24 55.832 6.42 15.24 -5
4/29/2022 7:45:00 PM 13.47 56.246 6.49 15.35 -5
4/29/2022 8:00:00 PM 13.36 56.048 6.51 14.78 -5
4/29/2022 8:15:00 PM 13.24 55.832 6.53 15.58 -5
4/29/2022 8:30:00 PM 13.47 56.246 6.53 15.35 -5
4/29/2022 8:45:00 PM 13.24 55.832 6.54 15.64 -5
4/29/2022 9:00:00 PM 13.47 56.246 6.54 15.47 -5
4/29/2022 9:15:00 PM 13.24 55.832 6.54 14.67 -5
4/29/2022 9:30:00 PM 13.4 56.12 6.55 15.12 -5
4/29/2022 9:45:00 PM 13.24 55.832 6.55 15.08 -5
4/29/2022 10:00:00 PM 13.36 56.048 6.55 14.98 -5
4/29/2022 10:15:00 PM 13.36 56.048 6.55 14.92 -5
4/29/2022 10:30:00 PM 13.24 55.832 6.56 14.92 -5
4/29/2022 10:45:00 PM 13.36 56.048 6.57 15 -5
4/29/2022 11:00:00 PM 13.24 55.832 6.57 14.95 -5
4/29/2022 11:15:00 PM 13.36 56.048 6.57 14.96 -5
4/29/2022 11:30:00 PM 13.1 55.58 6.57 16.28 -5
4/29/2022 11:45:00 PM 13.36 56.048 6.57 16.33 -5
4/30/2022 12:00:00 AM 13.1 55.58 6.58 15.88 -5
4/30/2022 12:15:00 AM 13.36 56.048 6.58 15.61 -5
4/30/2022 12:30:00 AM 13.1 55.58 6.58 15.43 -5
4/30/2022 12:45:00 AM 13.36 56.048 6.58 15.39 -5
4/30/2022 1:00:00 AM 13.1 55.58 6.58 15.35 -5
4/30/2022 1:15:00 AM 13.24 55.832 6.58 15.09 -5
4/30/2022 1:30:00 AM 12.98 55.364 6.58 14.95 -5
4/30/2022 1:45:00 AM 13.24 55.832 6.58 15 -5
4/30/2022 2:00:00 AM 12.99 55.382 6.58 15.03 -5
4/30/2022 2:15:00 AM 13.1 55.58 6.58 14.83 -5
4/30/2022 2:30:00 AM 12.86 55.148 6.58 15.08 -5
4/30/2022 2:45:00 AM 12.98 55.364 6.58 15.34 -5
4/30/2022 3:00:00 AM 12.73 54.914 6.58 15.18 -5
4/30/2022 3:15:00 AM 12.86 55.148 6.58 15.1 -5
4/30/2022 3:30:00 AM 12.61 54.698 6.57 15.14 -5
4/30/2022 3:45:00 AM 12.73 54.914 6.57 15.12 -5
4/30/2022 4:00:00 AM 12.61 54.698 6.57 14.87 -5
4/30/2022 4:15:00 AM 12.73 54.914 6.57 15.02 -5
4/30/2022 4:30:00 AM 12.48 54.464 6.57 14.96 -5
4/30/2022 4:45:00 AM 12.61 54.698 6.57 14.47 -5
4/30/2022 5:00:00 AM 12.61 54.698 6.57 13.96 -5
4/30/2022 5:15:00 AM 12.49 54.482 6.57 14.05 -5
4/30/2022 5:30:00 AM 12.48 54.464 6.57 14.01 -5
4/30/2022 5:45:00 AM 12.35 54.23 6.57 14.03 -5
4/30/2022 6:00:00 AM 12.35 54.23 6.56 14 -5
4/30/2022 6:15:00 AM 12.35 54.23 6.56 13.22 -5
4/30/2022 6:30:00 AM 12.22 53.996 6.56 13.61 -5
4/30/2022 6:45:00 AM 12.22 53.996 6.56 13.53 -5
4/30/2022 7:00:00 AM 12.22 53.996 6.56 13.47 -5
4/30/2022 7:15:00 AM 12.22 53.996 6.56 13.58 -5
4/30/2022 7:30:00 AM 12.11 53.798 6.57 13.53 -5
4/30/2022 7:45:00 AM 12.11 53.798 6.57 13.62 -5
4/30/2022 8:00:00 AM 12.11 53.798 6.57 13.47 -5
4/30/2022 8:15:00 AM 12.11 53.798 6.57 14.59 -5
4/30/2022 8:30:00 AM 11.97 53.546 6.57 14.38 -5
4/30/2022 8:45:00 AM 12.11 53.798 6.57 14.58 -5
4/30/2022 9:00:00 AM 12.11 53.798 6.57 14.58 -5
4/30/2022 9:15:00 AM 11.97 53.546 6.58 14.49 -5
4/30/2022 9:30:00 AM 12.11 53.798 6.58 14.45 -5
4/30/2022 9:45:00 AM 12.22 53.996 6.58 14.45 -5
4/30/2022 10:00:00 AM 12.11 53.798 6.58 14.43 -5
4/30/2022 10:15:00 AM 12.22 53.996 6.59 14.63 -5
4/30/2022 10:30:00 AM 12.35 54.23 6.59 15.06 -5
4/30/2022 10:45:00 AM 12.48 54.464 6.6 15.06 -5
4/30/2022 11:00:00 AM 12.48 54.464 6.6 14.75 -5
4/30/2022 11:15:00 AM 12.41 54.338 6.61 14.77 -5
4/30/2022 11:30:00 AM 12.61 54.698 6.61 15.01 -5
4/30/2022 11:45:00 AM 12.73 54.914 6.61 14.8 -5
4/30/2022 12:00:00 PM 12.73 54.914 6.62 14.31 -5
4/30/2022 12:15:00 PM 12.72 54.896 6.62 14.07 -5
4/30/2022 12:30:00 PM 12.86 55.148 6.63 14.04 -5
4/30/2022 12:45:00 PM 12.98 55.364 6.63 14.1 -5
4/30/2022 1:00:00 PM 12.98 55.364 6.63 13.97 -5
4/30/2022 1:15:00 PM 13.1 55.58 6.63 13.81 -5
4/30/2022 1:30:00 PM 12.98 55.364 6.64 13.97 -5
4/30/2022 1:45:00 PM 13.24 55.832 6.64 13.79 -5
4/30/2022 2:00:00 PM 13.24 55.832 6.64 13.54 -5
4/30/2022 2:15:00 PM 13.36 56.048 6.64 13.71 -5
4/30/2022 2:30:00 PM 13.36 56.048 6.65 13.88 -5
4/30/2022 2:45:00 PM 13.62 56.516 6.65 14.06 -5
4/30/2022 3:00:00 PM 13.47 56.246 6.65 13.9 -5
4/30/2022 3:15:00 PM 13.72 56.696 6.65 14.22 -5
4/30/2022 3:30:00 PM 13.62 56.516 6.66 14.37 -5
4/30/2022 3:45:00 PM 13.83 56.894 6.66 13.99 -5
4/30/2022 4:00:00 PM 13.72 56.696 6.65 13.96 -5
4/30/2022 4:15:00 PM 13.97 57.146 6.66 13.96 -5
4/30/2022 4:30:00 PM 13.97 57.146 6.66 14.08 -5
4/30/2022 4:45:00 PM 13.98 57.164 6.66 14.16 -5
4/30/2022 5:00:00 PM 14.09 57.362 6.66 13.97 -5
4/30/2022 5:15:00 PM 13.98 57.164 6.66 14.01 -5
4/30/2022 5:30:00 PM 14.21 57.578 6.66 14.34 -5
4/30/2022 5:45:00 PM 13.98 57.164 6.66 14.35 -5
4/30/2022 6:00:00 PM 14.21 57.578 6.66 14.34 -5
4/30/2022 6:15:00 PM 14.09 57.362 6.66 14.35 -5
4/30/2022 6:30:00 PM 14.09 57.362 6.66 14.27 -5
4/30/2022 6:45:00 PM 14.21 57.578 6.66 14.44 -5
4/30/2022 7:00:00 PM 14.09 57.362 6.66 14.31 -5
4/30/2022 7:15:00 PM 14.21 57.578 6.66 14.1 -5
4/30/2022 7:30:00 PM 14.21 57.578 6.66 14.6 -5
4/30/2022 7:45:00 PM 14.09 57.362 6.66 14.56 -5
4/30/2022 8:00:00 PM 14.21 57.578 6.66 14.43 -5
4/30/2022 8:15:00 PM 14.09 57.362 6.66 14.22 -5
4/30/2022 8:30:00 PM 14.21 57.578 6.66 14.14 -5
4/30/2022 8:45:00 PM 14.09 57.362 6.66 14.01 -5
4/30/2022 9:00:00 PM 14.09 57.362 6.66 13.8 -5
4/30/2022 9:15:00 PM 14.21 57.578 6.66 13.54 -5
4/30/2022 9:30:00 PM 14.09 57.362 6.66 13.37 -5
4/30/2022 9:45:00 PM 14.21 57.578 6.66 13.47 -5
4/30/2022 10:00:00 PM 13.97 57.146 6.66 12.9 -5
4/30/2022 10:15:00 PM 14.21 57.578 6.66 12.96 -5
4/30/2022 10:30:00 PM 13.98 57.164 6.66 12.84 -5
4/30/2022 10:45:00 PM 14.21 57.578 6.66 12.8 -5
4/30/2022 11:00:00 PM 13.98 57.164 6.66 12.62 -5
4/30/2022 11:15:00 PM 14.21 57.578 6.65 12.53 -5
4/30/2022 11:30:00 PM 14.09 57.362 6.65 12.57 -5
4/30/2022 11:45:00 PM 14.09 57.362 6.65 12.66 -5
5/1/2022 12:00:00 AM 13.98 57.164 6.65 12.66 -5
5/1/2022 12:15:00 AM 13.98 57.164 6.65 12.56 -5
5/1/2022 12:30:00 AM 13.97 57.146 6.65 12.64 -5
5/1/2022 12:45:00 AM 13.98 57.164 6.65 12.73 -5
5/1/2022 1:00:00 AM 13.98 57.164 6.65 12.57 -5
5/1/2022 1:15:00 AM 13.98 57.164 6.65 12.52 -5
5/1/2022 1:30:00 AM 13.83 56.894 6.64 13.02 -5
5/1/2022 1:45:00 AM 13.98 57.164 6.64 13.16 -5
5/1/2022 2:00:00 AM 13.72 56.696 6.64 12.84 -5
5/1/2022 2:15:00 AM 13.83 56.894 6.64 13.02 -5
5/1/2022 2:30:00 AM 13.62 56.516 6.64 12.98 -5
5/1/2022 2:45:00 AM 13.83 56.894 6.64 12.9 -5
5/1/2022 3:00:00 AM 13.47 56.246 6.63 13.1 -5
5/1/2022 3:15:00 AM 13.72 56.696 6.63 13.17 -5
5/1/2022 3:30:00 AM 13.45 56.21 6.63 13.27 -5
5/1/2022 3:45:00 AM 13.62 56.516 6.64 13.11 -5
5/1/2022 4:00:00 AM 13.36 56.048 6.63 13.35 -5
5/1/2022 4:15:00 AM 13.62 56.516 6.63 13.23 -5
5/1/2022 4:30:00 AM 13.36 56.048 6.63 13.22 -5
5/1/2022 4:45:00 AM 13.47 56.246 6.63 13.72 -5
5/1/2022 5:00:00 AM 13.24 55.832 6.63 13.37 -5
5/1/2022 5:15:00 AM 13.36 56.048 6.63 13.29 -5
5/1/2022 5:30:00 AM 13.24 55.832 6.63 13.38 -5
5/1/2022 5:45:00 AM 13.24 55.832 6.62 13.15 -5
5/1/2022 6:00:00 AM 13.1 55.58 6.62 13.12 -5
5/1/2022 6:15:00 AM 13.24 55.832 6.62 13.07 -5
5/1/2022 6:30:00 AM 13.24 55.832 6.62 13.21 -5
5/1/2022 6:45:00 AM 12.98 55.364 6.62 12.61 -5
5/1/2022 7:00:00 AM 13.1 55.58 6.62 12.35 -5
5/1/2022 7:15:00 AM 12.86 55.148 6.62 12.6 -5
5/1/2022 7:30:00 AM 12.98 55.364 6.62 12.46 -5
5/1/2022 7:45:00 AM 12.99 55.382 6.62 12.41 -5
5/1/2022 8:00:00 AM 12.99 55.382 6.62 12.51 -5
5/1/2022 8:15:00 AM 13.1 55.58 6.62 12.44 -5
5/1/2022 8:30:00 AM 12.86 55.148 6.62 12.52 -5
5/1/2022 8:45:00 AM 13.1 55.58 6.62 12.59 -5
5/1/2022 9:00:00 AM 12.86 55.148 6.63 12.5 -5
5/1/2022 9:15:00 AM 13.1 55.58 6.63 12.19 -5
5/1/2022 9:30:00 AM 12.86 55.148 6.63 12.18 -5
5/1/2022 9:45:00 AM 13.1 55.58 6.63 12.65 -5
5/1/2022 10:00:00 AM 12.86 55.148 6.64 12.2 -5
5/1/2022 10:15:00 AM 13.1 55.58 6.64 12.12 -5
5/1/2022 10:30:00 AM 12.86 55.148 6.64 12.37 -5
5/1/2022 10:45:00 AM 13.1 55.58 6.64 12.28 -5
5/1/2022 11:00:00 AM 12.99 55.382 6.64 12.35 -5
5/1/2022 11:15:00 AM 13.24 55.832 6.64 12.33 -5
5/1/2022 11:30:00 AM 12.99 55.382 6.65 12.29 -5
5/1/2022 11:45:00 AM 13.24 55.832 6.65 12.49 -5
5/1/2022 12:00:00 PM 13.1 55.58 6.65 12.46 -5
5/1/2022 12:15:00 PM 13.24 55.832 6.65 12.57 -5
5/1/2022 12:30:00 PM 13.24 55.832 6.65 12.52 -5
5/1/2022 12:45:00 PM 13.1 55.58 6.65 12.07 -5
5/1/2022 1:00:00 PM 13.24 55.832 6.65 11.87 -5
5/1/2022 1:15:00 PM 12.98 55.364 6.66 11.78 -5
5/1/2022 1:30:00 PM 13.24 55.832 6.66 11.74 -5
5/1/2022 1:45:00 PM 12.99 55.382 6.65 11.65 -5
5/1/2022 2:00:00 PM 13.24 55.832 6.65 11.57 -5
5/1/2022 2:15:00 PM 12.98 55.364 6.65 11.92 -5
5/1/2022 2:30:00 PM 13.24 55.832 6.65 12.45 -5
5/1/2022 2:45:00 PM 12.99 55.382 6.66 12.28 -5
5/1/2022 3:00:00 PM 13.24 55.832 6.65 12.06 -5
5/1/2022 3:15:00 PM 12.99 55.382 6.66 12.01 -5
5/1/2022 3:30:00 PM 13.24 55.832 6.66 12.03 -5
5/1/2022 3:45:00 PM 12.99 55.382 6.66 11.7 -5
5/1/2022 4:00:00 PM 13.24 55.832 6.66 11.53 -5
5/1/2022 4:15:00 PM 13.1 55.58 6.66 11.48 -5
5/1/2022 4:30:00 PM 13.24 55.832 6.66 11.66 -5
5/1/2022 4:45:00 PM 13.1 55.58 6.66 11.25 -5
5/1/2022 5:00:00 PM 13.24 55.832 6.66 11.22 -5
5/1/2022 5:15:00 PM 13.1 55.58 6.66 11.27 -5
5/1/2022 5:30:00 PM 13.36 56.048 6.66 11.09 -5
5/1/2022 5:45:00 PM 13.1 55.58 6.66 11.11 -5
5/1/2022 6:00:00 PM 13.36 56.048 6.66 11.28 -5
5/1/2022 6:15:00 PM 13.1 55.58 6.66 11.43 -5
5/1/2022 6:30:00 PM 13.36 56.048 6.66 11.48 -5
5/1/2022 6:45:00 PM 13.1 55.58 6.66 11.85 -5
5/1/2022 7:00:00 PM 13.36 56.048 6.66 11.57 -5
5/1/2022 7:15:00 PM 13.1 55.58 6.67 11.36 -5
5/1/2022 7:30:00 PM 13.24 55.832 6.67 11.49 -5
5/1/2022 7:45:00 PM 13.1 55.58 6.67 11.51 -5
5/1/2022 8:00:00 PM 13.24 55.832 6.67 11.26 -5
5/1/2022 8:15:00 PM 13.1 55.58 6.67 11.09 -5
5/1/2022 8:30:00 PM 13.24 55.832 6.66 11.31 -5
5/1/2022 8:45:00 PM 13.1 55.58 6.66 11.09 -5
5/1/2022 9:00:00 PM 13.24 55.832 6.66 11.45 -5
5/1/2022 9:15:00 PM 13.1 55.58 6.66 11.28 -5
5/1/2022 9:30:00 PM 13.24 55.832 6.67 11.29 -5
5/1/2022 9:45:00 PM 13.1 55.58 6.67 11.04 -5
5/1/2022 10:00:00 PM 13.24 55.832 6.67 11.08 -5
5/1/2022 10:15:00 PM 13.24 55.832 6.67 11.01 -5
5/1/2022 10:30:00 PM 13.24 55.832 6.67 11.03 -5
5/1/2022 10:45:00 PM 13.1 55.58 6.67 11.16 -5
5/1/2022 11:00:00 PM 13.1 55.58 6.67 11.05 -5
5/1/2022 11:15:00 PM 13.24 55.832 6.67 10.91 -5
5/1/2022 11:30:00 PM 13.1 55.58 6.67 10.89 -5
5/1/2022 11:45:00 PM 13.24 55.832 6.66 10.84 -5
5/2/2022 12:00:00 AM 12.98 55.364 6.67 10.92 -5
5/2/2022 12:15:00 AM 13.24 55.832 6.66 10.79 -5
5/2/2022 12:30:00 AM 12.98 55.364 6.66 10.93 -5
5/2/2022 12:45:00 AM 13.1 55.58 6.66 10.98 -5
5/2/2022 1:00:00 AM 12.86 55.148 6.66 10.88 -5
5/2/2022 1:15:00 AM 13.1 55.58 6.66 10.93 -5
5/2/2022 1:30:00 AM 12.86 55.148 6.66 10.99 -5
5/2/2022 1:45:00 AM 12.98 55.364 6.66 11.35 -5
5/2/2022 2:00:00 AM 12.86 55.148 6.66 11.4 -5
5/2/2022 2:15:00 AM 12.98 55.364 6.66 11.6 -5
5/2/2022 2:30:00 AM 12.99 55.382 6.66 11.68 -5
5/2/2022 2:45:00 AM 12.86 55.148 6.66 11.29 -5
5/2/2022 3:00:00 AM 12.98 55.364 6.66 11.4 -5
5/2/2022 3:15:00 AM 12.86 55.148 6.66 11.27 -5
5/2/2022 3:30:00 AM 12.99 55.382 6.66 11.12 -5
5/2/2022 3:45:00 AM 12.73 54.914 6.66 11.04 -5
5/2/2022 4:00:00 AM 12.98 55.364 6.66 10.98 -5
5/2/2022 4:15:00 AM 12.72 54.896 6.66 11.05 -5
5/2/2022 4:30:00 AM 12.98 55.364 6.65 11.15 -5
5/2/2022 4:45:00 AM 12.61 54.698 6.65 11.16 -5
5/2/2022 5:00:00 AM 12.86 55.148 6.65 11.12 -5
5/2/2022 5:15:00 AM 12.61 54.698 6.65 11.15 -5
5/2/2022 5:30:00 AM 12.86 55.148 6.65 11.15 -5
5/2/2022 5:45:00 AM 12.73 54.914 6.65 10.89 -5
5/2/2022 6:00:00 AM 12.73 54.914 6.65 10.72 -5
5/2/2022 6:15:00 AM 12.86 55.148 6.65 10.73 -5
5/2/2022 6:30:00 AM 12.73 54.914 6.65 11 -5
5/2/2022 6:45:00 AM 12.86 55.148 6.65 10.62 -5
5/2/2022 7:00:00 AM 12.61 54.698 6.65 10.68 -5
5/2/2022 7:15:00 AM 12.86 55.148 6.65 11.23 -5
5/2/2022 7:30:00 AM 12.61 54.698 6.66 11.18 -5
5/2/2022 7:45:00 AM 12.72 54.896 6.65 9.6 -5
5/2/2022 8:00:00 AM 12.61 54.698 6.64 9.54 -5
5/2/2022 8:15:00 AM 12.73 54.914 6.64 9.48 -5
5/2/2022 8:30:00 AM 12.61 54.698 6.64 9.58 -5
5/2/2022 8:45:00 AM 12.73 54.914 7.98 9.6 -5
5/2/2022 9:00:00 AM 12.61 54.698 7.78 9.5 -5
5/2/2022 9:15:00 AM 12.73 54.914 7.77 9.64 -5
5/2/2022 9:30:00 AM 12.73 54.914 7.78 9.8 -5
5/2/2022 9:45:00 AM 12.86 55.148 7.77 9.77 -5
5/2/2022 10:00:00 AM 12.73 54.914 7.78 9.9 -5
5/2/2022 10:15:00 AM 12.86 55.148 7.79 10.13 -5
5/2/2022 10:30:00 AM 12.86 55.148 7.8 10.35 -5
5/2/2022 10:45:00 AM 12.86 55.148 7.8 10.19 -5
5/2/2022 11:00:00 AM 12.98 55.364 7.81 10.08 -5
5/2/2022 11:15:00 AM 12.99 55.382 7.82 10.13 -5
5/2/2022 11:30:00 AM 13.1 55.58 7.83 10.22 -5
5/2/2022 11:45:00 AM 13.1 55.58 7.83 10.12 -5
5/2/2022 12:00:00 PM 13.24 55.832 7.84 10.04 -5
5/2/2022 12:15:00 PM 13.36 56.048 7.84 10.02 -5
5/2/2022 12:30:00 PM 13.36 56.048 7.86 10.05 -5
5/2/2022 12:45:00 PM 13.47 56.246 7.86 9.99 -5
5/2/2022 1:00:00 PM 13.62 56.516 7.89 10.01 -5
5/2/2022 1:15:00 PM 13.62 56.516 7.89 9.88 -5
5/2/2022 1:30:00 PM 13.62 56.516 7.9 10.05 -5
5/2/2022 1:45:00 PM 13.62 56.516 7.91 9.92 -5
5/2/2022 2:00:00 PM 13.62 56.516 7.93 9.89 -5
5/2/2022 2:15:00 PM 13.72 56.696 7.95 9.99 -5
5/2/2022 2:30:00 PM 13.83 56.894 7.97 9.88 -5
5/2/2022 2:45:00 PM 13.83 56.894 7.97 9.81 -5
5/2/2022 3:00:00 PM 13.98 57.164 7.98 9.7 -5
5/2/2022 3:15:00 PM 14.09 57.362 8.01 9.8 -5
5/2/2022 3:30:00 PM 14.09 57.362 8.02 9.89 -5
5/2/2022 3:45:00 PM 14.21 57.578 8.06 9.71 -5
5/2/2022 4:00:00 PM 14.09 57.362 8.08 9.86 -5
5/2/2022 4:15:00 PM 14.21 57.578 8.09 9.67 -5
5/2/2022 4:30:00 PM 14.21 57.578 8.1 9.87 -5
5/2/2022 4:45:00 PM 14.35 57.83 8.11 9.85 -5
5/2/2022 5:00:00 PM 14.21 57.578 8.12 9.96 -5
5/2/2022 5:15:00 PM 14.35 57.83 8.13 9.96 -5
5/2/2022 5:30:00 PM 14.59 58.262 8.14 10.17 -5
5/2/2022 5:45:00 PM 14.59 58.262 8.16 9.87 -5
5/2/2022 6:00:00 PM 14.72 58.496 8.16 9.93 -5
5/2/2022 6:15:00 PM 14.73 58.514 8.18 10.15 -5
5/2/2022 6:30:00 PM 14.97 58.946 8.18 9.92 -5
5/2/2022 6:45:00 PM 14.72 58.496 8.2 9.94 -5
5/2/2022 7:00:00 PM 14.85 58.73 8.21 9.96 -5
5/2/2022 7:15:00 PM 14.59 58.262 8.2 10.05 -5
5/2/2022 7:30:00 PM 14.72 58.496 8.19 10.18 -5
5/2/2022 7:45:00 PM 14.46 58.028 8.2 10.31 -5
5/2/2022 8:00:00 PM 14.72 58.496 8.21 10.18 -5
5/2/2022 8:15:00 PM 14.59 58.262 8.21 10.28 -5
5/2/2022 8:30:00 PM 14.72 58.496 8.21 10.06 -5
5/2/2022 8:45:00 PM 14.59 58.262 8.21 10.26 -5
5/2/2022 9:00:00 PM 14.72 58.496 8.21 10.2 -5
5/2/2022 9:15:00 PM 14.59 58.262 8.21 10.07 -5
5/2/2022 9:30:00 PM 14.72 58.496 8.19 10.36 -5
5/2/2022 9:45:00 PM 14.59 58.262 8.19 10.11 -5
5/2/2022 10:00:00 PM 14.59 58.262 8.19 10.13 -5
5/2/2022 10:15:00 PM 14.59 58.262 8.18 10.07 -5
5/2/2022 10:30:00 PM 14.59 58.262 8.17 10.11 -5
5/2/2022 10:45:00 PM 14.46 58.028 8.15 10.19 -5
5/2/2022 11:00:00 PM 14.59 58.262 8.14 10.32 -5
5/2/2022 11:15:00 PM 14.46 58.028 8.14 10.28 -5
5/2/2022 11:30:00 PM 14.59 58.262 8.12 10.4 -5
5/2/2022 11:45:00 PM 14.46 58.028 8.13 10.15 -5
5/3/2022 12:00:00 AM 14.46 58.028 8.11 10.08 -5
5/3/2022 12:15:00 AM 14.46 58.028 8.1 10.39 -5
5/3/2022 12:30:00 AM 14.46 58.028 8.1 10.36 -5
5/3/2022 12:45:00 AM 14.46 58.028 8.09 10.28 -5
5/3/2022 1:00:00 AM 14.35 57.83 8.08 10.22 -5
5/3/2022 1:15:00 AM 14.46 58.028 8.07 10.27 -5
5/3/2022 1:30:00 AM 14.35 57.83 8.06 10.38 -5
5/3/2022 1:45:00 AM 14.59 58.262 8.05 10.33 -5
5/3/2022 2:00:00 AM 14.35 57.83 8.04 10.13 -5
5/3/2022 2:15:00 AM 14.59 58.262 8.03 10.16 -5
5/3/2022 2:30:00 AM 14.35 57.83 8 10.53 -5
5/3/2022 2:45:00 AM 14.59 58.262 7.99 10.51 -5
5/3/2022 3:00:00 AM 14.35 57.83 7.98 10.51 -5
5/3/2022 3:15:00 AM 14.46 58.028 7.96 10.58 -5
5/3/2022 3:30:00 AM 14.21 57.578 7.95 10.69 -5
5/3/2022 3:45:00 AM 14.35 57.83 7.95 10.4 -5
5/3/2022 4:00:00 AM 14.21 57.578 7.94 10.14 -5
5/3/2022 4:15:00 AM 14.21 57.578 7.92 10.17 -5
5/3/2022 4:30:00 AM 14.35 57.83 7.91 10.13 -5
5/3/2022 4:45:00 AM 14.21 57.578 7.9 10.21 -5
5/3/2022 5:00:00 AM 14.35 57.83 7.89 10.16 -5
5/3/2022 5:15:00 AM 14.09 57.362 7.88 10.23 -5
5/3/2022 5:30:00 AM 14.35 57.83 7.86 10.43 -5
5/3/2022 5:45:00 AM 13.97 57.146 7.86 10.28 -5
5/3/2022 6:00:00 AM 14.21 57.578 7.85 10.37 -5
5/3/2022 6:15:00 AM 13.98 57.164 7.84 10.44 -5
5/3/2022 6:30:00 AM 14.09 57.362 7.82 10.35 -5
5/3/2022 6:45:00 AM 13.97 57.146 7.82 9.01 -5
5/3/2022 7:00:00 AM 14.09 57.362 7.81 9.17 -5
5/3/2022 7:15:00 AM 13.98 57.164 7.81 9.3 -5
5/3/2022 7:30:00 AM 14.09 57.362 7.79 9.39 -5
5/3/2022 7:45:00 AM 13.98 57.164 7.79 9.35 -5
5/3/2022 8:00:00 AM 14.09 57.362 7.79 9.47 -5
5/3/2022 8:15:00 AM 13.98 57.164 7.79 9.84 -5
5/3/2022 8:30:00 AM 14.09 57.362 7.78 9.6 -5
5/3/2022 8:45:00 AM 13.98 57.164 7.78 9.66 -5
5/3/2022 9:00:00 AM 14.09 57.362 7.78 9.71 -5
5/3/2022 9:15:00 AM 13.97 57.146 7.78 9.71 -5
5/3/2022 9:30:00 AM 14.09 57.362 7.77 9.84 -5
5/3/2022 9:45:00 AM 14.09 57.362 7.79 9.61 -5
5/3/2022 10:00:00 AM 14.09 57.362 7.8 9.64 -5
5/3/2022 10:15:00 AM 14.09 57.362 7.81 9.66 -5
5/3/2022 10:30:00 AM 14.09 57.362 7.81 9.69 -5
5/3/2022 10:45:00 AM 14.09 57.362 7.82 9.64 -5
5/3/2022 11:00:00 AM 14.09 57.362 7.83 9.79 -5
5/3/2022 11:15:00 AM 14.09 57.362 7.84 9.91 -5
5/3/2022 11:30:00 AM 14.09 57.362 7.84 9.88 -5
5/3/2022 11:45:00 AM 14.09 57.362 7.87 9.77 -5
5/3/2022 12:00:00 PM 14.21 57.578 7.88 9.92 -5
5/3/2022 12:15:00 PM 14.21 57.578 7.9 9.92 -5
5/3/2022 12:30:00 PM 14.21 57.578 7.9 9.83 -5
5/3/2022 12:45:00 PM 14.35 57.83 7.93 9.83 -5
5/3/2022 1:00:00 PM 14.46 58.028 7.95 9.91 -5
5/3/2022 1:15:00 PM 14.46 58.028 7.96 10 -5
5/3/2022 1:30:00 PM 14.59 58.262 7.96 9.86 -5
5/3/2022 1:45:00 PM 14.59 58.262 7.99 9.9 -5
5/3/2022 2:00:00 PM 14.72 58.496 8.01 9.83 -5
5/3/2022 2:15:00 PM 14.59 58.262 8.03 9.82 -5
5/3/2022 2:30:00 PM 14.85 58.73 8.04 9.74 -5
5/3/2022 2:45:00 PM 14.72 58.496 8.06 9.6 -5
5/3/2022 3:00:00 PM 14.97 58.946 8.08 9.65 -5
5/3/2022 3:15:00 PM 14.73 58.514 8.1 9.64 -5
5/3/2022 3:30:00 PM 14.97 58.946 8.12 9.19 -5
5/3/2022 3:45:00 PM 14.72 58.496 8.14 9.24 -5
5/3/2022 4:00:00 PM 15.1 59.18 8.16 9.24 -5
5/3/2022 4:15:00 PM 14.85 58.73 8.19 9.42 -5
5/3/2022 4:30:00 PM 15.1 59.18 8.21 9.25 -5
5/3/2022 4:45:00 PM 14.97 58.946 8.23 9.16 -5
5/3/2022 5:00:00 PM 15.1 59.18 8.25 9.25 -5
5/3/2022 5:15:00 PM 15.1 59.18 8.27 9.32 -5
5/3/2022 5:30:00 PM 15.22 59.396 8.29 9.19 -5
5/3/2022 5:45:00 PM 15.22 59.396 8.3 9.22 -5
5/3/2022 6:00:00 PM 15.34 59.612 8.32 9.14 -5
5/3/2022 6:15:00 PM 15.1 59.18 8.28 8.59 -5
5/3/2022 6:30:00 PM 15.34 59.612 8.29 8.22 -5
5/3/2022 6:45:00 PM 15.22 59.396 8.3 10.21 -5
5/3/2022 7:00:00 PM 15.48 59.864 8.33 10.49 -5
5/3/2022 7:15:00 PM 15.22 59.396 8.34 10.05 -5
5/3/2022 7:30:00 PM 15.48 59.864 8.32 10.86 -5
5/3/2022 7:45:00 PM 15.22 59.396 8.35 10.61 -5
5/3/2022 8:00:00 PM 15.48 59.864 8.33 10.8 -5
5/3/2022 8:15:00 PM 15.22 59.396 8.33 10.91 -5
5/3/2022 8:30:00 PM 15.48 59.864 8.32 11.2 -5
5/3/2022 8:45:00 PM 15.34 59.612 8.33 11.26 -5
5/3/2022 9:00:00 PM 15.48 59.864 8.33 10.92 -5
5/3/2022 9:15:00 PM 15.34 59.612 8.32 10.96 -5
5/3/2022 9:30:00 PM 15.34 59.612 8.3 10.93 -5
5/3/2022 9:45:00 PM 15.34 59.612 8.29 10.74 -5
5/3/2022 10:00:00 PM 15.34 59.612 8.28 10.97 -5
5/3/2022 10:15:00 PM 15.34 59.612 8.27 10.98 -5
5/3/2022 10:30:00 PM 15.34 59.612 8.27 10.85 -5
5/3/2022 10:45:00 PM 15.34 59.612 8.26 11.1 -5
5/3/2022 11:00:00 PM 15.22 59.396 8.25 11.29 -5
5/3/2022 11:15:00 PM 15.48 59.864 8.23 11.35 -5
5/3/2022 11:30:00 PM 15.34 59.612 8.21 10.94 -5
5/3/2022 11:45:00 PM 15.34 59.612 8.19 10.8 -5
5/4/2022 12:00:00 AM 15.22 59.396 8.18 10.85 -5
5/4/2022 12:15:00 AM 15.48 59.864 8.15 11.29 -5
5/4/2022 12:30:00 AM 15.22 59.396 8.14 11.32 -5
5/4/2022 12:45:00 AM 15.48 59.864 8.12 11.14 -5
5/4/2022 1:00:00 AM 15.22 59.396 8.11 10.85 -5
5/4/2022 1:15:00 AM 15.48 59.864 8.09 10.71 -5
5/4/2022 1:30:00 AM 15.22 59.396 8.08 10.28 -5
5/4/2022 1:45:00 AM 15.34 59.612 8.06 10.27 -5
5/4/2022 2:00:00 AM 15.22 59.396 8.03 10.27 -5
5/4/2022 2:15:00 AM 15.34 59.612 8.01 10.4 -5
5/4/2022 2:30:00 AM 15.34 59.612 7.98 10.24 -5
5/4/2022 2:45:00 AM 15.22 59.396 7.94 10.22 -5
5/4/2022 3:00:00 AM 15.34 59.612 7.9 10.25 -5
5/4/2022 3:15:00 AM 15.1 59.18 7.87 10.34 -5
5/4/2022 3:30:00 AM 15.34 59.612 7.85 10.43 -5
5/4/2022 3:45:00 AM 15.1 59.18 7.81 10.56 -5
5/4/2022 4:00:00 AM 15.22 59.396 7.79 10.57 -5
5/4/2022 4:15:00 AM 14.97 58.946 7.75 10.67 -5
5/4/2022 4:30:00 AM 15.1 59.18 7.72 10.84 -5
5/4/2022 4:45:00 AM 14.97 58.946 7.69 10.99 -5
5/4/2022 5:00:00 AM 15.1 59.18 7.67 11.41 -5
5/4/2022 5:15:00 AM 14.97 58.946 7.64 11.85 -5
5/4/2022 5:30:00 AM 14.97 58.946 7.61 11.5 -5
5/4/2022 5:45:00 AM 15.1 59.18 7.6 11.14 -5
5/4/2022 6:00:00 AM 14.85 58.73 7.58 10.93 -5
5/4/2022 6:15:00 AM 15.1 59.18 7.57 10.83 -5
5/4/2022 6:30:00 AM 14.72 58.496 7.55 10.63 -5
5/4/2022 6:45:00 AM 14.97 58.946 7.54 10.68 -5
5/4/2022 7:00:00 AM 14.73 58.514 7.52 10.94 -5
5/4/2022 7:15:00 AM 14.96 58.928 7.51 10.97 -5
5/4/2022 7:30:00 AM 14.59 58.262 7.77 9.23 -5
5/4/2022 7:45:00 AM 14.85 58.73 7.78 9.44 -5
5/4/2022 8:00:00 AM 14.59 58.262 7.79 9.36 -5
5/4/2022 8:15:00 AM 14.73 58.514 7.8 9.5 -5
5/4/2022 8:30:00 AM 14.59 58.262 7.81 9.54 -5
5/4/2022 8:45:00 AM 14.72 58.496 7.81 9.55 -5
5/4/2022 9:00:00 AM 14.59 58.262 7.81 9.6 -5
5/4/2022 9:15:00 AM 14.72 58.496 7.81 9.98 -5
5/4/2022 9:30:00 AM 14.59 58.262 7.81 9.83 -5
5/4/2022 9:45:00 AM 14.72 58.496 7.82 9.98 -5
5/4/2022 10:00:00 AM 14.72 58.496 7.82 10.31 -5
5/4/2022 10:15:00 AM 14.72 58.496 7.83 10.23 -5
5/4/2022 10:30:00 AM 14.72 58.496 7.83 10.37 -5
5/4/2022 10:45:00 AM 14.72 58.496 7.84 10.54 -5
5/4/2022 11:00:00 AM 14.72 58.496 7.85 10.57 -5
5/4/2022 11:15:00 AM 14.72 58.496 7.86 10.69 -5
5/4/2022 11:30:00 AM 14.85 58.73 7.87 10.56 -5
5/4/2022 11:45:00 AM 14.85 58.73 7.88 10.62 -5
5/4/2022 12:00:00 PM 14.97 58.946 7.9 10.59 -5
5/4/2022 12:15:00 PM 14.85 58.73 7.91 10.75 -5
5/4/2022 12:30:00 PM 15.1 59.18 7.92 10.62 -5
5/4/2022 12:45:00 PM 14.96 58.928 7.93 10.65 -5
5/4/2022 1:00:00 PM 15.1 59.18 7.95 10.59 -5
5/4/2022 1:15:00 PM 15.1 59.18 7.96 10.75 -5
5/4/2022 1:30:00 PM 15.1 59.18 7.97 10.57 -5
5/4/2022 1:45:00 PM 15.1 59.18 7.98 10.48 -5
5/4/2022 2:00:00 PM 15.1 59.18 8 10.45 -5
5/4/2022 2:15:00 PM 15.22 59.396 8.02 10.54 -5
5/4/2022 2:30:00 PM 15.22 59.396 8.04 10.54 -5
5/4/2022 2:45:00 PM 15.22 59.396 8.06 10.65 -5
5/4/2022 3:00:00 PM 15.34 59.612 8.08 10.56 -5
5/4/2022 3:15:00 PM 15.34 59.612 8.09 10.75 -5
5/4/2022 3:30:00 PM 15.48 59.864 8.12 10.53 -5
5/4/2022 3:45:00 PM 15.48 59.864 8.14 10.64 -5
5/4/2022 4:00:00 PM 15.6 60.08 8.16 10.58 -5
5/4/2022 4:15:00 PM 15.71 60.278 8.18 10.76 -5
5/4/2022 4:30:00 PM 15.77 60.386 8.2 10.46 -5
5/4/2022 4:45:00 PM 15.85 60.53 8.23 10.59 -5
5/4/2022 5:00:00 PM 15.85 60.53 8.26 10.52 -5
5/4/2022 5:15:00 PM 15.97 60.746 8.27 10.62 -5
5/4/2022 5:30:00 PM 15.97 60.746 8.29 10.5 -5
5/4/2022 5:45:00 PM 16.09 60.962 8.3 10.54 -5
5/4/2022 6:00:00 PM 16.09 60.962 8.32 10.58 -5
5/4/2022 6:15:00 PM 15.97 60.746 8.32 10.89 -5
5/4/2022 6:30:00 PM 16.23 61.214 8.32 11.09 -5
5/4/2022 6:45:00 PM 15.97 60.746 8.34 10.99 -5
5/4/2022 7:00:00 PM 16.23 61.214 8.34 10.9 -5
5/4/2022 7:15:00 PM 15.97 60.746 8.34 10.93 -5
5/4/2022 7:30:00 PM 16.23 61.214 8.35 10.87 -5
5/4/2022 7:45:00 PM 16.1 60.98 8.35 10.87 -5
5/4/2022 8:00:00 PM 16.09 60.962 8.35 10.96 -5
5/4/2022 8:15:00 PM 16.09 60.962 8.34 11.06 -5
5/4/2022 8:30:00 PM 16.09 60.962 8.35 11.03 -5
5/4/2022 8:45:00 PM 16.09 60.962 8.35 11.02 -5
5/4/2022 9:00:00 PM 15.85 60.53 8.36 11.04 -5
5/4/2022 9:15:00 PM 16.23 61.214 8.35 11.2 -5
5/4/2022 9:30:00 PM 15.97 60.746 8.35 11.08 -5
5/4/2022 9:45:00 PM 16.09 60.962 8.34 10.94 -5
5/4/2022 10:00:00 PM 16.01 60.818 8.32 11.01 -5
5/4/2022 10:15:00 PM 16.09 60.962 8.31 11.24 -5
5/4/2022 10:30:00 PM 16.09 60.962 8.3 10.96 -5
5/4/2022 10:45:00 PM 15.97 60.746 8.28 11.43 -5
5/4/2022 11:00:00 PM 16.23 61.214 8.29 11.37 -5
5/4/2022 11:15:00 PM 15.85 60.53 8.28 11.59 -5
5/4/2022 11:30:00 PM 16.23 61.214 8.26 11.24 -5
5/4/2022 11:45:00 PM 15.95 60.71 8.24 11.4 -5
5/5/2022 12:00:00 AM 16.09 60.962 8.22 11.53 -5
5/5/2022 12:15:00 AM 15.97 60.746 8.2 11.58 -5
5/5/2022 12:30:00 AM 15.97 60.746 8.19 11.42 -5
5/5/2022 12:45:00 AM 15.85 60.53 8.18 11.29 -5
5/5/2022 1:00:00 AM 15.85 60.53 8.17 11.14 -5
5/5/2022 1:15:00 AM 15.97 60.746 8.15 11.27 -5
5/5/2022 1:30:00 AM 15.71 60.278 8.13 11.29 -5
5/5/2022 1:45:00 AM 15.97 60.746 8.12 11.24 -5
5/5/2022 2:00:00 AM 15.71 60.278 8.1 11.4 -5
5/5/2022 2:15:00 AM 15.97 60.746 8.08 11.54 -5
5/5/2022 2:30:00 AM 15.71 60.278 8.06 11.43 -5
5/5/2022 2:45:00 AM 15.86 60.548 8.04 11.46 -5
5/5/2022 3:00:00 AM 15.86 60.548 8.02 11.51 -5
5/5/2022 3:15:00 AM 15.71 60.278 7.99 11.91 -5
5/5/2022 3:30:00 AM 15.85 60.53 7.98 11.66 -5
5/5/2022 3:45:00 AM 15.6 60.08 7.96 11.67 -5
5/5/2022 4:00:00 AM 15.85 60.53 7.94 11.76 -5
5/5/2022 4:15:00 AM 15.48 59.864 7.92 11.89 -5
5/5/2022 4:30:00 AM 15.85 60.53 7.91 11.87 -5
5/5/2022 4:45:00 AM 15.48 59.864 7.89 11.74 -5
5/5/2022 5:00:00 AM 15.71 60.278 7.88 11.85 -5
5/5/2022 5:15:00 AM 15.48 59.864 7.87 12.04 -5
5/5/2022 5:30:00 AM 15.71 60.278 7.86 11.84 -5
5/5/2022 5:45:00 AM 15.6 60.08 7.85 11.87 -5
5/5/2022 6:00:00 AM 15.6 60.08 7.84 11.83 -5
5/5/2022 6:15:00 AM 15.6 60.08 7.83 11.99 -5
5/5/2022 6:30:00 AM 15.6 60.08 7.82 11.8 -5
5/5/2022 6:45:00 AM 15.6 60.08 7.81 11.78 -5
5/5/2022 7:00:00 AM 15.35 59.63 7.8 11.89 -5
5/5/2022 7:15:00 AM 15.59 60.062 7.79 11.83 -5
5/5/2022 7:30:00 AM 15.22 59.396 7.79 10.41 -5
5/5/2022 7:45:00 AM 15.6 60.08 7.79 10.37 -5
5/5/2022 8:00:00 AM 15.22 59.396 7.8 10.48 -5
5/5/2022 8:15:00 AM 15.6 60.08 7.79 10.61 -5
5/5/2022 8:30:00 AM 15.22 59.396 7.81 10.63 -5
5/5/2022 8:45:00 AM 15.6 60.08 7.82 10.57 -5
5/5/2022 9:00:00 AM 15.34 59.612 7.83 10.72 -5
5/5/2022 9:15:00 AM 15.6 60.08 7.83 10.94 -5
5/5/2022 9:30:00 AM 15.34 59.612 7.85 10.86 -5
5/5/2022 9:45:00 AM 15.71 60.278 7.87 11.04 -5
5/5/2022 10:00:00 AM 15.48 59.864 7.89 11.13 -5
5/5/2022 10:15:00 AM 15.85 60.53 7.9 11.35 -5
5/5/2022 10:30:00 AM 15.6 60.08 7.93 11.25 -5
5/5/2022 10:45:00 AM 15.97 60.746 7.94 11.37 -5
5/5/2022 11:00:00 AM 15.6 60.08 7.98 11.24 -5
5/5/2022 11:15:00 AM 16.09 60.962 7.99 11.07 -5
5/5/2022 11:30:00 AM 15.85 60.53 8.01 11.2 -5
5/5/2022 11:45:00 AM 16.23 61.214 8.03 11.51 -5
5/5/2022 12:00:00 PM 16.09 60.962 8.05 11.67 -5
5/5/2022 12:15:00 PM 16.34 61.412 8.05 11.55 -5
5/5/2022 12:30:00 PM 16.23 61.214 8.09 11.57 -5
5/5/2022 12:45:00 PM 16.47 61.646 8.11 11.64 -5
5/5/2022 1:00:00 PM 16.34 61.412 8.13 11.59 -5
5/5/2022 1:15:00 PM 16.47 61.646 8.14 11.62 -5
5/5/2022 1:30:00 PM 16.6 61.88 8.17 11.6 -5
5/5/2022 1:45:00 PM 16.6 61.88 8.19 11.62 -5
5/5/2022 2:00:00 PM 16.84 62.312 8.21 11.72 -5
5/5/2022 2:15:00 PM 16.73 62.114 8.22 11.74 -5
5/5/2022 2:30:00 PM 16.98 62.564 8.25 11.81 -5
5/5/2022 2:45:00 PM 16.85 62.33 8.27 11.89 -5
5/5/2022 3:00:00 PM 17.22 62.996 8.29 11.9 -5
5/5/2022 3:15:00 PM 16.98 62.564 8.31 11.98 -5
5/5/2022 3:30:00 PM 17.36 63.248 8.33 11.99 -5
5/5/2022 3:45:00 PM 17.1 62.78 8.35 11.67 -5
5/5/2022 4:00:00 PM 17.36 63.248 8.36 11.9 -5
5/5/2022 4:15:00 PM 17.22 62.996 8.38 11.71 -5
5/5/2022 4:30:00 PM 17.48 63.464 8.4 11.7 -5
5/5/2022 4:45:00 PM 17.37 63.266 8.41 11.68 -5
5/5/2022 5:00:00 PM 17.59 63.662 8.43 11.62 -5
5/5/2022 5:15:00 PM 17.48 63.464 8.43 11.46 -5
5/5/2022 5:30:00 PM 17.6 63.68 8.44 11.55 -5
5/5/2022 5:45:00 PM 17.6 63.68 8.48 11.6 -5
5/5/2022 6:00:00 PM 17.48 63.464 8.48 11.8 -5
5/5/2022 6:15:00 PM 17.74 63.932 8.48 11.78 -5
5/5/2022 6:30:00 PM 17.48 63.464 8.49 12.03 -5
5/5/2022 6:45:00 PM 17.85 64.13 8.5 11.92 -5
5/5/2022 7:00:00 PM 17.48 63.464 8.51 11.96 -5
5/5/2022 7:15:00 PM 17.74 63.932 8.51 12.16 -5
5/5/2022 7:30:00 PM 17.6 63.68 8.52 12.8 -5
5/5/2022 7:45:00 PM 17.59 63.662 8.52 12.85 -5
5/5/2022 8:00:00 PM 17.74 63.932 8.52 12.63 -5
5/5/2022 8:15:00 PM 17.48 63.464 8.51 12.5 -5
5/5/2022 8:30:00 PM 17.85 64.13 8.51 12.8 -5
5/5/2022 8:45:00 PM 17.48 63.464 8.51 12.83 -5
5/5/2022 9:00:00 PM 17.77 63.986 8.51 12.66 -5
5/5/2022 9:15:00 PM 17.6 63.68 8.5 12.76 -5
5/5/2022 9:30:00 PM 17.74 63.932 8.5 12.65 -5
5/5/2022 9:45:00 PM 17.74 63.932 8.49 12.62 -5
5/5/2022 10:00:00 PM 17.74 63.932 8.49 12.65 -5
5/5/2022 10:15:00 PM 17.85 64.13 8.47 12.58 -5
5/5/2022 10:30:00 PM 17.59 63.662 8.47 12.59 -5
5/5/2022 10:45:00 PM 17.85 64.13 8.46 12.54 -5
5/5/2022 11:00:00 PM 17.59 63.662 8.46 12.57 -5
5/5/2022 11:15:00 PM 17.96 64.328 8.44 12.62 -5
5/5/2022 11:30:00 PM 17.6 63.68 8.43 12.6 -5
5/5/2022 11:45:00 PM 17.74 63.932 8.44 12.57 -5
5/6/2022 12:00:00 AM 17.85 64.13 8.43 12.56 -5
5/6/2022 12:15:00 AM 17.59 63.662 8.4 12.82 -5
5/6/2022 12:30:00 AM 17.85 64.13 8.42 12.74 -5
5/6/2022 12:45:00 AM 17.74 63.932 8.41 12.7 -5
5/6/2022 1:00:00 AM 17.59 63.662 8.39 13.08 -5
5/6/2022 1:15:00 AM 17.96 64.328 8.38 12.96 -5
5/6/2022 1:30:00 AM 17.6 63.68 8.37 12.85 -5
5/6/2022 1:45:00 AM 17.74 63.932 8.36 12.91 -5
5/6/2022 2:00:00 AM 17.74 63.932 8.34 12.87 -5
5/6/2022 2:15:00 AM 17.48 63.464 8.31 12.82 -5
5/6/2022 2:30:00 AM 17.85 64.13 8.3 12.97 -5
5/6/2022 2:45:00 AM 17.48 63.464 8.29 13.05 -5
5/6/2022 3:00:00 AM 17.74 63.932 8.28 13.18 -5
5/6/2022 3:15:00 AM 17.6 63.68 8.26 13.09 -5
5/6/2022 3:30:00 AM 17.48 63.464 8.24 13.09 -5
5/6/2022 3:45:00 AM 17.74 63.932 8.23 13.01 -5
5/6/2022 4:00:00 AM 17.36 63.248 8.21 13.21 -5
5/6/2022 4:15:00 AM 17.74 63.932 8.2 12.85 -5
5/6/2022 4:30:00 AM 17.37 63.266 8.17 12.85 -5
5/6/2022 4:45:00 AM 17.48 63.464 8.16 12.95 -5
5/6/2022 5:00:00 AM 17.48 63.464 8.14 13.06 -5
5/6/2022 5:15:00 AM 17.36 63.248 8.11 12.9 -5
5/6/2022 5:30:00 AM 17.48 63.464 8.1 12.97 -5
5/6/2022 5:45:00 AM 17.1 62.78 8.08 13.01 -5
5/6/2022 6:00:00 AM 17.48 63.464 8.06 13.05 -5
5/6/2022 6:15:00 AM 17.22 62.996 8.05 12.73 -5
5/6/2022 6:30:00 AM 17.22 62.996 8.03 12.88 -5
5/6/2022 6:45:00 AM 17.22 62.996 8 12.84 -5
5/6/2022 7:00:00 AM 17.11 62.798 7.98 12.92 -5
5/6/2022 7:15:00 AM 17.36 63.248 7.97 12.84 -5
5/6/2022 7:30:00 AM 16.85 62.33 7.95 13.62 -5
5/6/2022 7:45:00 AM 16.98 62.564 7.94 11.09 -5
5/6/2022 8:00:00 AM 16.98 62.564 7.91 11.14 -5
5/6/2022 8:15:00 AM 16.85 62.33 7.91 11.05 -5
5/6/2022 8:30:00 AM 16.98 62.564 7.9 11.16 -5
5/6/2022 8:45:00 AM 16.73 62.114 7.89 11.12 -5
5/6/2022 9:00:00 AM 16.84 62.312 7.89 11.33 -5
5/6/2022 9:15:00 AM 16.73 62.114 7.88 11.24 -5
5/6/2022 9:30:00 AM 16.73 62.114 7.87 11.24 -5
5/6/2022 9:45:00 AM 16.85 62.33 7.87 11.33 -5
5/6/2022 10:00:00 AM 16.73 62.114 7.87 11.4 -5
5/6/2022 10:15:00 AM 16.84 62.312 7.86 11.24 -5
5/6/2022 10:30:00 AM 16.6 61.88 7.85 11.47 -5
5/6/2022 10:45:00 AM 16.73 62.114 7.85 11.44 -5
5/6/2022 11:00:00 AM 16.6 61.88 7.84 11.47 -5
5/6/2022 11:15:00 AM 16.73 62.114 7.84 11.46 -5
5/6/2022 11:30:00 AM 16.6 61.88 7.84 11.48 -5
5/6/2022 11:45:00 AM 16.6 61.88 7.84 11.5 -5
5/6/2022 12:00:00 PM 16.73 62.114 7.84 11.7 -5
5/6/2022 12:15:00 PM 16.47 61.646 7.84 11.52 -5
5/6/2022 12:30:00 PM 16.6 61.88 7.84 11.61 -5
5/6/2022 12:45:00 PM 16.34 61.412 7.85 11.45 -5
5/6/2022 1:00:00 PM 16.47 61.646 7.84 11.68 -5
5/6/2022 1:15:00 PM 16.47 61.646 7.84 11.76 -5
5/6/2022 1:30:00 PM 16.34 61.412 7.84 11.95 -5
5/6/2022 1:45:00 PM 16.47 61.646 7.85 12.22 -5
5/6/2022 2:00:00 PM 16.34 61.412 7.58 12.63 -5
5/6/2022 2:15:00 PM 16.47 61.646 7.92 12.69 -5
5/6/2022 2:30:00 PM 16.47 61.646 7.91 12.84 -5
5/6/2022 2:45:00 PM 16.23 61.214 7.88 12.93 -5
5/6/2022 3:00:00 PM 16.34 61.412 7.88 13.44 -5
5/6/2022 3:15:00 PM 16.23 61.214 7.87 13.49 -5
5/6/2022 3:30:00 PM 16.23 61.214 7.87 13.83 -5
5/6/2022 3:45:00 PM 16.34 61.412 7.87 13.85 -5
5/6/2022 4:00:00 PM 16.1 60.98 7.85 14.19 -5
5/6/2022 4:15:00 PM 16.23 61.214 7.85 14.18 -5
5/6/2022 4:30:00 PM 16.23 61.214 7.84 14.34 -5
5/6/2022 4:45:00 PM 15.97 60.746 7.82 14.13 -5
5/6/2022 5:00:00 PM 16.09 60.962 7.81 14.59 -5
5/6/2022 5:15:00 PM 16.09 60.962 7.82 14.96 -5
5/6/2022 5:30:00 PM 15.86 60.548 7.81 15.21 -5
5/6/2022 5:45:00 PM 15.97 60.746 7.82 15.57 -5
5/6/2022 6:00:00 PM 16.1 60.98 7.81 15.54 -5
5/6/2022 6:15:00 PM 15.85 60.53 7.83 15.83 -5
5/6/2022 6:30:00 PM 15.97 60.746 7.84 16.81 -5
5/6/2022 6:45:00 PM 15.97 60.746 7.83 17.65 -5
5/6/2022 7:00:00 PM 15.85 60.53 7.81 18.45 -5
5/6/2022 7:15:00 PM 15.85 60.53 7.81 19.51 -5
5/6/2022 7:30:00 PM 15.97 60.746 7.79 20.12 -5
5/6/2022 7:45:00 PM 15.85 60.53 7.77 20.75 -5
5/6/2022 8:00:00 PM 15.71 60.278 7.76 20.84 -5
5/6/2022 8:15:00 PM 15.85 60.53 7.74 20.25 -5
5/6/2022 8:30:00 PM 15.85 60.53 7.75 20.73 -5
5/6/2022 8:45:00 PM 15.6 60.08 7.74 21.73 -5
5/6/2022 9:00:00 PM 15.85 60.53 7.75 21.12 -5
5/6/2022 9:15:00 PM 15.71 60.278 7.75 21.26 -5
5/6/2022 9:30:00 PM 15.6 60.08 7.75 19.96 -5
5/6/2022 9:45:00 PM 15.71 60.278 7.75 19.76 -5
5/6/2022 10:00:00 PM 15.6 60.08 7.75 19.79 -5
5/6/2022 10:15:00 PM 15.59 60.062 7.74 19.1 -5
5/6/2022 10:30:00 PM 15.71 60.278 7.74 19.11 -5
5/6/2022 10:45:00 PM 15.48 59.864 7.73 19.15 -5
5/6/2022 11:00:00 PM 15.6 60.08 7.72 19.47 -5
5/6/2022 11:15:00 PM 15.71 60.278 7.71 19.25 -5
5/6/2022 11:30:00 PM 15.48 59.864 7.71 19.31 -5
5/6/2022 11:45:00 PM 15.6 60.08 7.7 19.28 -5
5/7/2022 12:00:00 AM 15.55 59.99 7.69 19.86 -5
5/7/2022 12:15:00 AM 15.48 59.864 7.67 19.8 -5
5/7/2022 12:30:00 AM 15.6 60.08 7.67 19.87 -5
5/7/2022 12:45:00 AM 15.34 59.612 7.66 20.14 -5
5/7/2022 1:00:00 AM 15.34 59.612 7.65 20.67 -5
5/7/2022 1:15:00 AM 15.48 59.864 7.65 20.55 -5
5/7/2022 1:30:00 AM 15.22 59.396 7.64 20.51 -5
5/7/2022 1:45:00 AM 15.34 59.612 7.63 20.63 -5
5/7/2022 2:00:00 AM 15.48 59.864 7.63 21.24 -5
5/7/2022 2:15:00 AM 15.1 59.18 7.62 21.17 -5
5/7/2022 2:30:00 AM 15.34 59.612 7.62 21.25 -5
5/7/2022 2:45:00 AM 15.34 59.612 7.61 21.68 -5
5/7/2022 3:00:00 AM 15.1 59.18 7.6 21.99 -5
5/7/2022 3:15:00 AM 15.22 59.396 7.6 22 -5
5/7/2022 3:30:00 AM 15.09 59.162 7.59 22.27 -5
5/7/2022 3:45:00 AM 15.1 59.18 7.59 22.33 -5
5/7/2022 4:00:00 AM 15.22 59.396 7.58 22.57 -5
5/7/2022 4:15:00 AM 14.97 58.946 7.57 21.89 -5
5/7/2022 4:30:00 AM 15.1 59.18 7.55 21.74 -5
5/7/2022 4:45:00 AM 15.22 59.396 7.54 21.69 -5
5/7/2022 5:00:00 AM 14.85 58.73 7.53 22.13 -5
5/7/2022 5:15:00 AM 14.97 58.946 7.52 21.99 -5
5/7/2022 5:30:00 AM 15.1 59.18 7.52 22.4 -5
5/7/2022 5:45:00 AM 14.85 58.73 7.52 22.85 -5
5/7/2022 6:00:00 AM 14.97 58.946 7.5 23.15 -5
5/7/2022 6:15:00 AM 14.97 58.946 7.5 23.6 -5
5/7/2022 6:30:00 AM 14.73 58.514 7.48 23.6 -5
5/7/2022 6:45:00 AM 14.85 58.73 7.47 23.83 -5
5/7/2022 7:00:00 AM 14.91 58.838 7.46 24.26 -5
5/7/2022 7:15:00 AM 14.85 58.73 7.46 24.86 -5
5/7/2022 7:30:00 AM 14.72 58.496 7.46 25.51 -5
5/7/2022 7:45:00 AM 14.85 58.73 7.45 26.38 -5
5/7/2022 8:00:00 AM 14.85 58.73 7.44 26.79 -5
5/7/2022 8:15:00 AM 14.46 58.028 7.44 26.71 -5
5/7/2022 8:30:00 AM 14.72 58.496 7.44 27.79 -5
5/7/2022 8:45:00 AM 14.72 58.496 7.42 27.92 -5
5/7/2022 9:00:00 AM 14.46 58.028 7.4 27.48 -5
5/7/2022 9:15:00 AM 14.59 58.262 7.4 29.16 -5
5/7/2022 9:30:00 AM 14.59 58.262 7.41 30.55 -5
5/7/2022 9:45:00 AM 14.59 58.262 7.4 31.33 -5
5/7/2022 10:00:00 AM 14.35 57.83 7.39 31.76 -5
5/7/2022 10:15:00 AM 14.46 58.028 7.38 32.64 -5
5/7/2022 10:30:00 AM 14.46 58.028 7.39 33.01 -5
5/7/2022 10:45:00 AM 14.35 57.83 7.4 34.3 -5
5/7/2022 11:00:00 AM 14.35 57.83 7.38 35.08 -5
5/7/2022 11:15:00 AM 14.46 58.028 7.39 35.95 -5
5/7/2022 11:30:00 AM 14.46 58.028 7.38 36.85 -5
5/7/2022 11:45:00 AM 14.21 57.578 7.4 38.65 -5
5/7/2022 12:00:00 PM 14.35 57.83 7.39 39.58 -5
5/7/2022 12:15:00 PM 14.35 57.83 7.38 40.54 -5
5/7/2022 12:30:00 PM 14.09 57.362 7.37 40.91 -5
5/7/2022 12:45:00 PM 14.35 57.83 7.38 42.88 -5
5/7/2022 1:00:00 PM 14.35 57.83 7.34 43.26 -5
5/7/2022 1:15:00 PM 14.09 57.362 7.37 44.91 -5
5/7/2022 1:30:00 PM 14.21 57.578 7.36 44.96 -5
5/7/2022 1:45:00 PM 14.35 57.83 7.34 45.1 -5
5/7/2022 2:00:00 PM 14.09 57.362 7.36 48.38 -5
5/7/2022 2:15:00 PM 14.21 57.578 7.35 47.32 -5
5/7/2022 2:30:00 PM 14.35 57.83 7.37 48.94 -5
5/7/2022 2:45:00 PM 13.98 57.164 7.36 49.87 -5
5/7/2022 3:00:00 PM 14.21 57.578 7.36 50.92 -5
5/7/2022 3:15:00 PM 14.21 57.578 7.36 51.23 -5
5/7/2022 3:30:00 PM 13.97 57.146 7.35 51.17 -5
5/7/2022 3:45:00 PM 14.09 57.362 7.34 51.05 -5
5/7/2022 4:00:00 PM 14.21 57.578 7.33 50.79 -5
5/7/2022 4:15:00 PM 13.83 56.894 7.33 53.17 -5
5/7/2022 4:30:00 PM 14.09 57.362 7.32 51.76 -5
5/7/2022 4:45:00 PM 14.09 57.362 7.33 50.69 -5
5/7/2022 5:00:00 PM 13.83 56.894 7.32 53.13 -5
5/7/2022 5:15:00 PM 14.09 57.362 7.32 54.52 -5
5/7/2022 5:30:00 PM 14.09 57.362 7.32 56.87 -5
5/7/2022 5:45:00 PM 13.72 56.696 7.31 56.78 -5
5/7/2022 6:00:00 PM 13.98 57.164 7.31 60.23 -5
5/7/2022 6:15:00 PM 13.98 57.164 7.29 58.09 -5
5/7/2022 6:30:00 PM 13.98 57.164 7.3 60.23 -5
5/7/2022 6:45:00 PM 13.72 56.696 7.28 59.92 -5
5/7/2022 7:00:00 PM 13.83